<?xml version="1.0" encoding="UTF-8" standalone="no" ?>
<gpx xmlns="http://www.topografix.com/GPX/1/1" xmlns:xsi="http://www.w3.org/2001/XMLSchema-instance" xsi:schemaLocation="http://www.topografix.com/GPX/1/1 http://www.topografix.com/GPX/1/1/gpx.xsd" version="1.1" creator="VisuGPX - https://www.visugpx.com">
  <metadata>
    <name>Tour de France 2019</name>
    <desc><![CDATA[4272km en 2 mois en tandem avec notre petit chien dans le panier avant]]></desc>
  </metadata>
  <trk>
    <name><![CDATA[Tracé 20191029-081009]]></name>
    <trkseg>
      <trkpt lat="44.40036" lon="2.60534">
        <ele>581.839</ele>
        <time>2019-10-29T07:12:54Z</time>
      </trkpt>
      <trkpt lat="44.40048" lon="2.60616">
        <ele>590.416</ele>
        <time>2019-10-29T07:13:24Z</time>
      </trkpt>
      <trkpt lat="44.40104" lon="2.60596">
        <ele>608.969</ele>
        <time>2019-10-29T07:13:54Z</time>
      </trkpt>
      <trkpt lat="44.40169" lon="2.60609">
        <ele>607.678</ele>
        <time>2019-10-29T07:14:24Z</time>
      </trkpt>
      <trkpt lat="44.40229" lon="2.60612">
        <ele>611.327</ele>
        <time>2019-10-29T07:14:54Z</time>
      </trkpt>
      <trkpt lat="44.40289" lon="2.60621">
        <ele>614.79</ele>
        <time>2019-10-29T07:15:33Z</time>
      </trkpt>
      <trkpt lat="44.40303" lon="2.60464">
        <ele>619.55</ele>
        <time>2019-10-29T07:16:06Z</time>
      </trkpt>
      <trkpt lat="44.40323" lon="2.60293">
        <ele>617.362</ele>
        <time>2019-10-29T07:16:36Z</time>
      </trkpt>
      <trkpt lat="44.40392" lon="2.60106">
        <ele>612.861</ele>
        <time>2019-10-29T07:17:06Z</time>
      </trkpt>
      <trkpt lat="44.40482" lon="2.59954">
        <ele>617.214</ele>
        <time>2019-10-29T07:17:36Z</time>
      </trkpt>
      <trkpt lat="44.40609" lon="2.59829">
        <ele>614.697</ele>
        <time>2019-10-29T07:18:06Z</time>
      </trkpt>
      <trkpt lat="44.40751" lon="2.5962">
        <ele>609.253</ele>
        <time>2019-10-29T07:18:36Z</time>
      </trkpt>
      <trkpt lat="44.40866" lon="2.59467">
        <ele>609.222</ele>
        <time>2019-10-29T07:19:09Z</time>
      </trkpt>
      <trkpt lat="44.40977" lon="2.59403">
        <ele>608.896</ele>
        <time>2019-10-29T07:19:39Z</time>
      </trkpt>
      <trkpt lat="44.41095" lon="2.59375">
        <ele>612.536</ele>
        <time>2019-10-29T07:20:09Z</time>
      </trkpt>
      <trkpt lat="44.41212" lon="2.59397">
        <ele>610.372</ele>
        <time>2019-10-29T07:20:39Z</time>
      </trkpt>
      <trkpt lat="44.41431" lon="2.59304">
        <ele>606.852</ele>
        <time>2019-10-29T07:21:09Z</time>
      </trkpt>
      <trkpt lat="44.41729" lon="2.59132">
        <ele>590.085</ele>
        <time>2019-10-29T07:21:39Z</time>
      </trkpt>
      <trkpt lat="44.42027" lon="2.58961">
        <ele>579.046</ele>
        <time>2019-10-29T07:22:09Z</time>
      </trkpt>
      <trkpt lat="44.42151" lon="2.5889">
        <ele>584.701</ele>
        <time>2019-10-29T07:22:39Z</time>
      </trkpt>
      <trkpt lat="44.42307" lon="2.58801">
        <ele>581.698</ele>
        <time>2019-10-29T07:23:09Z</time>
      </trkpt>
      <trkpt lat="44.42478" lon="2.58701">
        <ele>581.106</ele>
        <time>2019-10-29T07:23:39Z</time>
      </trkpt>
      <trkpt lat="44.42666" lon="2.58593">
        <ele>578.636</ele>
        <time>2019-10-29T07:24:09Z</time>
      </trkpt>
      <trkpt lat="44.42776" lon="2.5853">
        <ele>581.806</ele>
        <time>2019-10-29T07:24:39Z</time>
      </trkpt>
      <trkpt lat="44.42893" lon="2.58463">
        <ele>582.574</ele>
        <time>2019-10-29T07:25:09Z</time>
      </trkpt>
      <trkpt lat="44.43001" lon="2.58402">
        <ele>587.348</ele>
        <time>2019-10-29T07:25:39Z</time>
      </trkpt>
      <trkpt lat="44.43079" lon="2.58357">
        <ele>588.578</ele>
        <time>2019-10-29T07:26:09Z</time>
      </trkpt>
      <trkpt lat="44.43146" lon="2.58318">
        <ele>593.669</ele>
        <time>2019-10-29T07:26:39Z</time>
      </trkpt>
      <trkpt lat="44.43239" lon="2.58267">
        <ele>599.697</ele>
        <time>2019-10-29T07:27:09Z</time>
      </trkpt>
      <trkpt lat="44.43457" lon="2.58175">
        <ele>594.622</ele>
        <time>2019-10-29T07:27:39Z</time>
      </trkpt>
      <trkpt lat="44.43738" lon="2.58053">
        <ele>581.235</ele>
        <time>2019-10-29T07:28:09Z</time>
      </trkpt>
      <trkpt lat="44.43961" lon="2.58028">
        <ele>572.56</ele>
        <time>2019-10-29T07:28:39Z</time>
      </trkpt>
      <trkpt lat="44.44159" lon="2.58034">
        <ele>568.726</ele>
        <time>2019-10-29T07:29:09Z</time>
      </trkpt>
      <trkpt lat="44.44357" lon="2.5801">
        <ele>570.47</ele>
        <time>2019-10-29T07:29:39Z</time>
      </trkpt>
      <trkpt lat="44.446" lon="2.57932">
        <ele>559.853</ele>
        <time>2019-10-29T07:30:09Z</time>
      </trkpt>
      <trkpt lat="44.44863" lon="2.57829">
        <ele>555.385</ele>
        <time>2019-10-29T07:30:42Z</time>
      </trkpt>
      <trkpt lat="44.4506" lon="2.5775">
        <ele>555.647</ele>
        <time>2019-10-29T07:31:12Z</time>
      </trkpt>
      <trkpt lat="44.45247" lon="2.57585">
        <ele>549.19</ele>
        <time>2019-10-29T07:31:42Z</time>
      </trkpt>
      <trkpt lat="44.45394" lon="2.57433">
        <ele>548.887</ele>
        <time>2019-10-29T07:32:12Z</time>
      </trkpt>
      <trkpt lat="44.45559" lon="2.57442">
        <ele>550.75</ele>
        <time>2019-10-29T07:32:42Z</time>
      </trkpt>
      <trkpt lat="44.45777" lon="2.5746">
        <ele>547.195</ele>
        <time>2019-10-29T07:33:12Z</time>
      </trkpt>
      <trkpt lat="44.45885" lon="2.57454">
        <ele>548.525</ele>
        <time>2019-10-29T07:33:42Z</time>
      </trkpt>
      <trkpt lat="44.45921" lon="2.57266">
        <ele>547.636</ele>
        <time>2019-10-29T07:34:12Z</time>
      </trkpt>
      <trkpt lat="44.45946" lon="2.5711">
        <ele>553.643</ele>
        <time>2019-10-29T07:34:42Z</time>
      </trkpt>
      <trkpt lat="44.45956" lon="2.56999">
        <ele>564.72</ele>
        <time>2019-10-29T07:35:12Z</time>
      </trkpt>
      <trkpt lat="44.45935" lon="2.56888">
        <ele>565.614</ele>
        <time>2019-10-29T07:35:42Z</time>
      </trkpt>
      <trkpt lat="44.45919" lon="2.5678">
        <ele>570.385</ele>
        <time>2019-10-29T07:36:12Z</time>
      </trkpt>
      <trkpt lat="44.45934" lon="2.56656">
        <ele>572.551</ele>
        <time>2019-10-29T07:36:42Z</time>
      </trkpt>
      <trkpt lat="44.45962" lon="2.56525">
        <ele>571.638</ele>
        <time>2019-10-29T07:37:12Z</time>
      </trkpt>
      <trkpt lat="44.45991" lon="2.56363">
        <ele>575.073</ele>
        <time>2019-10-29T07:37:42Z</time>
      </trkpt>
      <trkpt lat="44.46181" lon="2.56312">
        <ele>568.527</ele>
        <time>2019-10-29T07:38:12Z</time>
      </trkpt>
      <trkpt lat="44.46347" lon="2.56019">
        <ele>556.371</ele>
        <time>2019-10-29T07:38:42Z</time>
      </trkpt>
      <trkpt lat="44.46437" lon="2.55797">
        <ele>550.702</ele>
        <time>2019-10-29T07:39:12Z</time>
      </trkpt>
      <trkpt lat="44.46551" lon="2.55596">
        <ele>549.928</ele>
        <time>2019-10-29T07:39:42Z</time>
      </trkpt>
      <trkpt lat="44.46668" lon="2.55473">
        <ele>549.348</ele>
        <time>2019-10-29T07:40:12Z</time>
      </trkpt>
      <trkpt lat="44.46773" lon="2.5532">
        <ele>552.714</ele>
        <time>2019-10-29T07:40:42Z</time>
      </trkpt>
      <trkpt lat="44.4688" lon="2.5504">
        <ele>546.077</ele>
        <time>2019-10-29T07:41:12Z</time>
      </trkpt>
      <trkpt lat="44.46985" lon="2.54763">
        <ele>540.212</ele>
        <time>2019-10-29T07:41:42Z</time>
      </trkpt>
      <trkpt lat="44.47095" lon="2.54474">
        <ele>535.626</ele>
        <time>2019-10-29T07:42:15Z</time>
      </trkpt>
      <trkpt lat="44.47205" lon="2.54192">
        <ele>529.966</ele>
        <time>2019-10-29T07:42:45Z</time>
      </trkpt>
      <trkpt lat="44.47303" lon="2.53933">
        <ele>529.191</ele>
        <time>2019-10-29T07:43:15Z</time>
      </trkpt>
      <trkpt lat="44.47382" lon="2.53725">
        <ele>530.192</ele>
        <time>2019-10-29T07:43:45Z</time>
      </trkpt>
      <trkpt lat="44.47439" lon="2.53568">
        <ele>532.961</ele>
        <time>2019-10-29T07:44:15.001Z</time>
      </trkpt>
      <trkpt lat="44.47488" lon="2.53442">
        <ele>538.125</ele>
        <time>2019-10-29T07:44:45.001Z</time>
      </trkpt>
      <trkpt lat="44.47538" lon="2.53311">
        <ele>540.955</ele>
        <time>2019-10-29T07:45:15.001Z</time>
      </trkpt>
      <trkpt lat="44.47584" lon="2.53187">
        <ele>545.599</ele>
        <time>2019-10-29T07:45:45.001Z</time>
      </trkpt>
      <trkpt lat="44.47616" lon="2.53076">
        <ele>546.665</ele>
        <time>2019-10-29T07:46:15.001Z</time>
      </trkpt>
      <trkpt lat="44.47598" lon="2.52965">
        <ele>550.03</ele>
        <time>2019-10-29T07:46:45.001Z</time>
      </trkpt>
      <trkpt lat="44.4755" lon="2.52877">
        <ele>553.05</ele>
        <time>2019-10-29T07:47:15.001Z</time>
      </trkpt>
      <trkpt lat="44.47498" lon="2.52791">
        <ele>553.347</ele>
        <time>2019-10-29T07:47:45.001Z</time>
      </trkpt>
      <trkpt lat="44.47527" lon="2.52683">
        <ele>558.475</ele>
        <time>2019-10-29T07:48:15.001Z</time>
      </trkpt>
      <trkpt lat="44.47642" lon="2.52592">
        <ele>559.544</ele>
        <time>2019-10-29T07:48:45.001Z</time>
      </trkpt>
      <trkpt lat="44.47743" lon="2.52437">
        <ele>557.269</ele>
        <time>2019-10-29T07:49:15.001Z</time>
      </trkpt>
      <trkpt lat="44.47831" lon="2.52212">
        <ele>551.721</ele>
        <time>2019-10-29T07:49:45.001Z</time>
      </trkpt>
      <trkpt lat="44.47694" lon="2.52068">
        <ele>548.376</ele>
        <time>2019-10-29T07:50:15.001Z</time>
      </trkpt>
      <trkpt lat="44.47629" lon="2.51964">
        <ele>549.816</ele>
        <time>2019-10-29T07:57:09.001Z</time>
      </trkpt>
      <trkpt lat="44.47622" lon="2.51709">
        <ele>545.982</ele>
        <time>2019-10-29T07:57:39.001Z</time>
      </trkpt>
      <trkpt lat="44.47593" lon="2.51325">
        <ele>527.192</ele>
        <time>2019-10-29T07:58:09.001Z</time>
      </trkpt>
      <trkpt lat="44.47453" lon="2.51165">
        <ele>516.134</ele>
        <time>2019-10-29T07:58:39.001Z</time>
      </trkpt>
      <trkpt lat="44.47362" lon="2.51147">
        <ele>522.758</ele>
        <time>2019-10-29T07:59:09.001Z</time>
      </trkpt>
      <trkpt lat="44.47293" lon="2.50972">
        <ele>526.779</ele>
        <time>2019-10-29T07:59:39.001Z</time>
      </trkpt>
      <trkpt lat="44.47187" lon="2.50724">
        <ele>520.786</ele>
        <time>2019-10-29T08:00:09.001Z</time>
      </trkpt>
      <trkpt lat="44.47171" lon="2.50534">
        <ele>525.225</ele>
        <time>2019-10-29T08:00:42.001Z</time>
      </trkpt>
      <trkpt lat="44.4712" lon="2.50376">
        <ele>529.484</ele>
        <time>2019-10-29T08:01:12.001Z</time>
      </trkpt>
      <trkpt lat="44.46953" lon="2.50319">
        <ele>523.246</ele>
        <time>2019-10-29T08:01:42.001Z</time>
      </trkpt>
      <trkpt lat="44.46847" lon="2.50118">
        <ele>520.618</ele>
        <time>2019-10-29T08:02:12.001Z</time>
      </trkpt>
      <trkpt lat="44.4681" lon="2.49856">
        <ele>519.937</ele>
        <time>2019-10-29T08:02:42.001Z</time>
      </trkpt>
      <trkpt lat="44.46793" lon="2.49445">
        <ele>506.104</ele>
        <time>2019-10-29T08:03:12.001Z</time>
      </trkpt>
      <trkpt lat="44.46617" lon="2.48956">
        <ele>476.264</ele>
        <time>2019-10-29T08:03:42.001Z</time>
      </trkpt>
      <trkpt lat="44.46606" lon="2.48529">
        <ele>445.045</ele>
        <time>2019-10-29T08:04:12.001Z</time>
      </trkpt>
      <trkpt lat="44.46778" lon="2.47995">
        <ele>410.419</ele>
        <time>2019-10-29T08:04:42.001Z</time>
      </trkpt>
      <trkpt lat="44.47053" lon="2.47775">
        <ele>376.767</ele>
        <time>2019-10-29T08:05:12.001Z</time>
      </trkpt>
      <trkpt lat="44.47302" lon="2.47571">
        <ele>350.598</ele>
        <time>2019-10-29T08:05:42.001Z</time>
      </trkpt>
      <trkpt lat="44.47351" lon="2.47657">
        <ele>329.046</ele>
        <time>2019-10-29T08:06:12.001Z</time>
      </trkpt>
      <trkpt lat="44.47366" lon="2.47405">
        <ele>316.169</ele>
        <time>2019-10-29T08:06:42.001Z</time>
      </trkpt>
      <trkpt lat="44.47372" lon="2.46993">
        <ele>296.326</ele>
        <time>2019-10-29T08:07:12.001Z</time>
      </trkpt>
      <trkpt lat="44.47341" lon="2.46682">
        <ele>285.103</ele>
        <time>2019-10-29T08:07:42.001Z</time>
      </trkpt>
      <trkpt lat="44.47377" lon="2.46518">
        <ele>272.258</ele>
        <time>2019-10-29T08:08:12.001Z</time>
      </trkpt>
      <trkpt lat="44.47439" lon="2.46376">
        <ele>272.866</ele>
        <time>2019-10-29T08:08:42.001Z</time>
      </trkpt>
      <trkpt lat="44.47423" lon="2.46189">
        <ele>281.273</ele>
        <time>2019-10-29T08:09:12.001Z</time>
      </trkpt>
      <trkpt lat="44.47488" lon="2.46002">
        <ele>276.71</ele>
        <time>2019-10-29T08:09:42.001Z</time>
      </trkpt>
      <trkpt lat="44.47561" lon="2.458">
        <ele>276.595</ele>
        <time>2019-10-29T08:10:12.001Z</time>
      </trkpt>
      <trkpt lat="44.47643" lon="2.45603">
        <ele>275.3</ele>
        <time>2019-10-29T08:10:42.001Z</time>
      </trkpt>
      <trkpt lat="44.47754" lon="2.45464">
        <ele>275.527</ele>
        <time>2019-10-29T08:11:12.001Z</time>
      </trkpt>
      <trkpt lat="44.47865" lon="2.45495">
        <ele>273.699</ele>
        <time>2019-10-29T08:11:42.001Z</time>
      </trkpt>
      <trkpt lat="44.47939" lon="2.4537">
        <ele>275.013</ele>
        <time>2019-10-29T08:12:15.001Z</time>
      </trkpt>
      <trkpt lat="44.47977" lon="2.4524">
        <ele>282.399</ele>
        <time>2019-10-29T08:12:45.001Z</time>
      </trkpt>
      <trkpt lat="44.48094" lon="2.45104">
        <ele>280.806</ele>
        <time>2019-10-29T08:13:15.001Z</time>
      </trkpt>
      <trkpt lat="44.48256" lon="2.44968">
        <ele>281.433</ele>
        <time>2019-10-29T08:13:45.001Z</time>
      </trkpt>
      <trkpt lat="44.48449" lon="2.44995">
        <ele>277.343</ele>
        <time>2019-10-29T08:14:15.001Z</time>
      </trkpt>
      <trkpt lat="44.48668" lon="2.45019">
        <ele>269.454</ele>
        <time>2019-10-29T08:14:45.001Z</time>
      </trkpt>
      <trkpt lat="44.4889" lon="2.45098">
        <ele>263.406</ele>
        <time>2019-10-29T08:15:15.001Z</time>
      </trkpt>
      <trkpt lat="44.49005" lon="2.44854">
        <ele>260.775</ele>
        <time>2019-10-29T08:15:45.001Z</time>
      </trkpt>
      <trkpt lat="44.49104" lon="2.4464">
        <ele>261.087</ele>
        <time>2019-10-29T08:16:15.001Z</time>
      </trkpt>
      <trkpt lat="44.49131" lon="2.44382">
        <ele>271.439</ele>
        <time>2019-10-29T08:16:45.001Z</time>
      </trkpt>
      <trkpt lat="44.49286" lon="2.44245">
        <ele>266.193</ele>
        <time>2019-10-29T08:17:15.001Z</time>
      </trkpt>
      <trkpt lat="44.49462" lon="2.44145">
        <ele>262.792</ele>
        <time>2019-10-29T08:17:45.001Z</time>
      </trkpt>
      <trkpt lat="44.49561" lon="2.43936">
        <ele>263.221</ele>
        <time>2019-10-29T08:18:15.001Z</time>
      </trkpt>
      <trkpt lat="44.49674" lon="2.43771">
        <ele>261.399</ele>
        <time>2019-10-29T08:18:45.001Z</time>
      </trkpt>
      <trkpt lat="44.49803" lon="2.43644">
        <ele>261.842</ele>
        <time>2019-10-29T08:19:15.001Z</time>
      </trkpt>
      <trkpt lat="44.4986" lon="2.43461">
        <ele>270.655</ele>
        <time>2019-10-29T08:19:45.001Z</time>
      </trkpt>
      <trkpt lat="44.49998" lon="2.43343">
        <ele>261.354</ele>
        <time>2019-10-29T08:20:15.001Z</time>
      </trkpt>
      <trkpt lat="44.50179" lon="2.43435">
        <ele>258.629</ele>
        <time>2019-10-29T08:20:45.001Z</time>
      </trkpt>
      <trkpt lat="44.50369" lon="2.43473">
        <ele>256.565</ele>
        <time>2019-10-29T08:21:15.001Z</time>
      </trkpt>
      <trkpt lat="44.50463" lon="2.43286">
        <ele>259.117</ele>
        <time>2019-10-29T08:21:45.001Z</time>
      </trkpt>
      <trkpt lat="44.50507" lon="2.43159">
        <ele>262.484</ele>
        <time>2019-10-29T08:22:15.001Z</time>
      </trkpt>
      <trkpt lat="44.50575" lon="2.43101">
        <ele>269.235</ele>
        <time>2019-10-29T08:22:45.001Z</time>
      </trkpt>
      <trkpt lat="44.50654" lon="2.43054">
        <ele>270.702</ele>
        <time>2019-10-29T08:23:15.001Z</time>
      </trkpt>
      <trkpt lat="44.50831" lon="2.43098">
        <ele>271.937</ele>
        <time>2019-10-29T08:23:48.001Z</time>
      </trkpt>
      <trkpt lat="44.5106" lon="2.43214">
        <ele>261.392</ele>
        <time>2019-10-29T08:24:18.001Z</time>
      </trkpt>
      <trkpt lat="44.5123" lon="2.43208">
        <ele>261.684</ele>
        <time>2019-10-29T08:24:48.001Z</time>
      </trkpt>
      <trkpt lat="44.51429" lon="2.43149">
        <ele>259.553</ele>
        <time>2019-10-29T08:25:18.001Z</time>
      </trkpt>
      <trkpt lat="44.51553" lon="2.42975">
        <ele>251.977</ele>
        <time>2019-10-29T08:25:48.001Z</time>
      </trkpt>
      <trkpt lat="44.51618" lon="2.42918">
        <ele>253.075</ele>
        <time>2019-10-29T08:26:18.001Z</time>
      </trkpt>
      <trkpt lat="44.51683" lon="2.42877">
        <ele>257.955</ele>
        <time>2019-10-29T08:26:48.001Z</time>
      </trkpt>
      <trkpt lat="44.51775" lon="2.42873">
        <ele>260.928</ele>
        <time>2019-10-29T08:27:18.001Z</time>
      </trkpt>
      <trkpt lat="44.51888" lon="2.42868">
        <ele>266.02</ele>
        <time>2019-10-29T08:27:48.001Z</time>
      </trkpt>
      <trkpt lat="44.52008" lon="2.42872">
        <ele>268.42</ele>
        <time>2019-10-29T08:28:18.001Z</time>
      </trkpt>
      <trkpt lat="44.52151" lon="2.42803">
        <ele>265</ele>
        <time>2019-10-29T08:28:48.001Z</time>
      </trkpt>
      <trkpt lat="44.52301" lon="2.42546">
        <ele>250.459</ele>
        <time>2019-10-29T08:29:18.001Z</time>
      </trkpt>
      <trkpt lat="44.52458" lon="2.42258">
        <ele>241.782</ele>
        <time>2019-10-29T08:29:48.001Z</time>
      </trkpt>
      <trkpt lat="44.52454" lon="2.41979">
        <ele>244.134</ele>
        <time>2019-10-29T08:30:18.001Z</time>
      </trkpt>
      <trkpt lat="44.52441" lon="2.41728">
        <ele>246.739</ele>
        <time>2019-10-29T08:30:48.001Z</time>
      </trkpt>
      <trkpt lat="44.52459" lon="2.41507">
        <ele>246.383</ele>
        <time>2019-10-29T08:31:18.001Z</time>
      </trkpt>
      <trkpt lat="44.52545" lon="2.41321">
        <ele>241.64</ele>
        <time>2019-10-29T08:31:48.001Z</time>
      </trkpt>
      <trkpt lat="44.52695" lon="2.41257">
        <ele>239.442</ele>
        <time>2019-10-29T08:32:18.001Z</time>
      </trkpt>
      <trkpt lat="44.52803" lon="2.41155">
        <ele>239.004</ele>
        <time>2019-10-29T08:32:48.001Z</time>
      </trkpt>
      <trkpt lat="44.52778" lon="2.40997">
        <ele>237.62</ele>
        <time>2019-10-29T08:33:18.001Z</time>
      </trkpt>
      <trkpt lat="44.5286" lon="2.40925">
        <ele>238.274</ele>
        <time>2019-10-29T08:33:48.001Z</time>
      </trkpt>
      <trkpt lat="44.52905" lon="2.40872">
        <ele>243.207</ele>
        <time>2019-10-29T08:34:27.001Z</time>
      </trkpt>
      <trkpt lat="44.52934" lon="2.40791">
        <ele>246.159</ele>
        <time>2019-10-29T08:34:57.001Z</time>
      </trkpt>
      <trkpt lat="44.52977" lon="2.40668">
        <ele>246.047</ele>
        <time>2019-10-29T08:35:27.001Z</time>
      </trkpt>
      <trkpt lat="44.52957" lon="2.40477">
        <ele>243.594</ele>
        <time>2019-10-29T08:36:00Z</time>
      </trkpt>
      <trkpt lat="44.52862" lon="2.40393">
        <ele>242.75</ele>
        <time>2019-10-29T08:36:30.001Z</time>
      </trkpt>
      <trkpt lat="44.52774" lon="2.40266">
        <ele>244.315</ele>
        <time>2019-10-29T08:37:00Z</time>
      </trkpt>
      <trkpt lat="44.5269" lon="2.40132">
        <ele>246.21</ele>
        <time>2019-10-29T08:37:30.001Z</time>
      </trkpt>
      <trkpt lat="44.52585" lon="2.40026">
        <ele>247.51</ele>
        <time>2019-10-29T08:38:00Z</time>
      </trkpt>
      <trkpt lat="44.52468" lon="2.39933">
        <ele>244.518</ele>
        <time>2019-10-29T08:38:30.001Z</time>
      </trkpt>
      <trkpt lat="44.52374" lon="2.39813">
        <ele>246.172</ele>
        <time>2019-10-29T08:39:00Z</time>
      </trkpt>
      <trkpt lat="44.52295" lon="2.39682">
        <ele>242.732</ele>
        <time>2019-10-29T08:39:30.001Z</time>
      </trkpt>
      <trkpt lat="44.52232" lon="2.3954">
        <ele>251.349</ele>
        <time>2019-10-29T08:40:00Z</time>
      </trkpt>
      <trkpt lat="44.52184" lon="2.39389">
        <ele>266.48</ele>
        <time>2019-10-29T08:40:30.001Z</time>
      </trkpt>
      <trkpt lat="44.52174" lon="2.39206">
        <ele>278.238</ele>
        <time>2019-10-29T08:41:00Z</time>
      </trkpt>
      <trkpt lat="44.52202" lon="2.39032">
        <ele>263.812</ele>
        <time>2019-10-29T08:41:30.001Z</time>
      </trkpt>
      <trkpt lat="44.52246" lon="2.38879">
        <ele>265.761</ele>
        <time>2019-10-29T08:42:00Z</time>
      </trkpt>
      <trkpt lat="44.5227" lon="2.38723">
        <ele>275.936</ele>
        <time>2019-10-29T08:42:30.001Z</time>
      </trkpt>
      <trkpt lat="44.52267" lon="2.38547">
        <ele>293.559</ele>
        <time>2019-10-29T08:43:00Z</time>
      </trkpt>
      <trkpt lat="44.52218" lon="2.38429">
        <ele>275.756</ele>
        <time>2019-10-29T08:43:30.001Z</time>
      </trkpt>
      <trkpt lat="44.52164" lon="2.3835">
        <ele>268.403</ele>
        <time>2019-10-29T08:44:00Z</time>
      </trkpt>
      <trkpt lat="44.52119" lon="2.38276">
        <ele>270.446</ele>
        <time>2019-10-29T08:44:30.001Z</time>
      </trkpt>
      <trkpt lat="44.52076" lon="2.38197">
        <ele>281.821</ele>
        <time>2019-10-29T08:45:00Z</time>
      </trkpt>
      <trkpt lat="44.52039" lon="2.38116">
        <ele>288.242</ele>
        <time>2019-10-29T08:45:30.001Z</time>
      </trkpt>
      <trkpt lat="44.51999" lon="2.38034">
        <ele>294.521</ele>
        <time>2019-10-29T08:46:00Z</time>
      </trkpt>
      <trkpt lat="44.51962" lon="2.37948">
        <ele>302.351</ele>
        <time>2019-10-29T08:46:30.001Z</time>
      </trkpt>
      <trkpt lat="44.5195" lon="2.37855">
        <ele>305.744</ele>
        <time>2019-10-29T08:47:00Z</time>
      </trkpt>
      <trkpt lat="44.51943" lon="2.37743">
        <ele>295.115</ele>
        <time>2019-10-29T08:47:33.001Z</time>
      </trkpt>
      <trkpt lat="44.51918" lon="2.37647">
        <ele>292.939</ele>
        <time>2019-10-29T08:48:03.001Z</time>
      </trkpt>
      <trkpt lat="44.51855" lon="2.37591">
        <ele>297.801</ele>
        <time>2019-10-29T08:48:33.001Z</time>
      </trkpt>
      <trkpt lat="44.51792" lon="2.3753">
        <ele>295.258</ele>
        <time>2019-10-29T08:49:03.001Z</time>
      </trkpt>
      <trkpt lat="44.51736" lon="2.3743">
        <ele>295.689</ele>
        <time>2019-10-29T08:49:33.001Z</time>
      </trkpt>
      <trkpt lat="44.51683" lon="2.37338">
        <ele>306.245</ele>
        <time>2019-10-29T08:50:03.001Z</time>
      </trkpt>
      <trkpt lat="44.51619" lon="2.37249">
        <ele>304.016</ele>
        <time>2019-10-29T08:50:33.001Z</time>
      </trkpt>
      <trkpt lat="44.51533" lon="2.3721">
        <ele>304.216</ele>
        <time>2019-10-29T08:51:03.001Z</time>
      </trkpt>
      <trkpt lat="44.51426" lon="2.37199">
        <ele>310.618</ele>
        <time>2019-10-29T08:51:33.001Z</time>
      </trkpt>
      <trkpt lat="44.51329" lon="2.37195">
        <ele>302.153</ele>
        <time>2019-10-29T08:52:03.001Z</time>
      </trkpt>
      <trkpt lat="44.51229" lon="2.37179">
        <ele>304.595</ele>
        <time>2019-10-29T08:52:33.001Z</time>
      </trkpt>
      <trkpt lat="44.51139" lon="2.3717">
        <ele>308.492</ele>
        <time>2019-10-29T08:53:03.001Z</time>
      </trkpt>
      <trkpt lat="44.51078" lon="2.37107">
        <ele>314.007</ele>
        <time>2019-10-29T08:53:33.001Z</time>
      </trkpt>
      <trkpt lat="44.51031" lon="2.37032">
        <ele>321.49</ele>
        <time>2019-10-29T08:54:03.001Z</time>
      </trkpt>
      <trkpt lat="44.50988" lon="2.36947">
        <ele>324.306</ele>
        <time>2019-10-29T08:54:33.001Z</time>
      </trkpt>
      <trkpt lat="44.50997" lon="2.36925">
        <ele>318.929</ele>
        <time>2019-10-29T09:01:18.001Z</time>
      </trkpt>
      <trkpt lat="44.50987" lon="2.36887">
        <ele>322.375</ele>
        <time>2019-10-29T09:21:12.001Z</time>
      </trkpt>
      <trkpt lat="44.51008" lon="2.36785">
        <ele>324.337</ele>
        <time>2019-10-29T09:21:42.001Z</time>
      </trkpt>
      <trkpt lat="44.51031" lon="2.36687">
        <ele>327.414</ele>
        <time>2019-10-29T09:22:12.001Z</time>
      </trkpt>
      <trkpt lat="44.51055" lon="2.36587">
        <ele>330.855</ele>
        <time>2019-10-29T09:22:42.001Z</time>
      </trkpt>
      <trkpt lat="44.51079" lon="2.3648">
        <ele>331.299</ele>
        <time>2019-10-29T09:23:12.001Z</time>
      </trkpt>
      <trkpt lat="44.51124" lon="2.36365">
        <ele>334.438</ele>
        <time>2019-10-29T09:23:42.001Z</time>
      </trkpt>
      <trkpt lat="44.5119" lon="2.36246">
        <ele>335.993</ele>
        <time>2019-10-29T09:24:12.001Z</time>
      </trkpt>
      <trkpt lat="44.51264" lon="2.3609">
        <ele>335.549</ele>
        <time>2019-10-29T09:24:45.001Z</time>
      </trkpt>
      <trkpt lat="44.51355" lon="2.35916">
        <ele>330.166</ele>
        <time>2019-10-29T09:25:15.001Z</time>
      </trkpt>
      <trkpt lat="44.51437" lon="2.35726">
        <ele>327.688</ele>
        <time>2019-10-29T09:25:45.001Z</time>
      </trkpt>
      <trkpt lat="44.51549" lon="2.3535">
        <ele>313.157</ele>
        <time>2019-10-29T09:26:15.001Z</time>
      </trkpt>
      <trkpt lat="44.51656" lon="2.34816">
        <ele>286.896</ele>
        <time>2019-10-29T09:26:45.001Z</time>
      </trkpt>
      <trkpt lat="44.51879" lon="2.34301">
        <ele>262.67</ele>
        <time>2019-10-29T09:27:15.001Z</time>
      </trkpt>
      <trkpt lat="44.52092" lon="2.3395">
        <ele>257.54</ele>
        <time>2019-10-29T09:27:45.001Z</time>
      </trkpt>
      <trkpt lat="44.52241" lon="2.337">
        <ele>255.592</ele>
        <time>2019-10-29T09:28:15.001Z</time>
      </trkpt>
      <trkpt lat="44.52409" lon="2.33417">
        <ele>249.495</ele>
        <time>2019-10-29T09:28:45.001Z</time>
      </trkpt>
      <trkpt lat="44.52545" lon="2.33185">
        <ele>245.66</ele>
        <time>2019-10-29T09:29:15.001Z</time>
      </trkpt>
      <trkpt lat="44.52657" lon="2.33004">
        <ele>242.642</ele>
        <time>2019-10-29T09:29:45.001Z</time>
      </trkpt>
      <trkpt lat="44.52771" lon="2.3282">
        <ele>242.569</ele>
        <time>2019-10-29T09:30:15.001Z</time>
      </trkpt>
      <trkpt lat="44.52881" lon="2.32636">
        <ele>242.074</ele>
        <time>2019-10-29T09:30:45.001Z</time>
      </trkpt>
      <trkpt lat="44.52958" lon="2.32508">
        <ele>245.375</ele>
        <time>2019-10-29T09:31:15.001Z</time>
      </trkpt>
      <trkpt lat="44.53029" lon="2.32398">
        <ele>250.737</ele>
        <time>2019-10-29T09:31:45.001Z</time>
      </trkpt>
      <trkpt lat="44.53137" lon="2.32267">
        <ele>252.314</ele>
        <time>2019-10-29T09:32:15.001Z</time>
      </trkpt>
      <trkpt lat="44.53283" lon="2.32116">
        <ele>249.708</ele>
        <time>2019-10-29T09:32:45.001Z</time>
      </trkpt>
      <trkpt lat="44.53456" lon="2.31947">
        <ele>246.684</ele>
        <time>2019-10-29T09:33:15.001Z</time>
      </trkpt>
      <trkpt lat="44.53607" lon="2.31754">
        <ele>245.998</ele>
        <time>2019-10-29T09:33:45.001Z</time>
      </trkpt>
      <trkpt lat="44.5378" lon="2.3156">
        <ele>238.873</ele>
        <time>2019-10-29T09:34:15.001Z</time>
      </trkpt>
      <trkpt lat="44.53923" lon="2.31379">
        <ele>236.071</ele>
        <time>2019-10-29T09:34:45.001Z</time>
      </trkpt>
      <trkpt lat="44.54084" lon="2.31196">
        <ele>236.04</ele>
        <time>2019-10-29T09:35:15.001Z</time>
      </trkpt>
      <trkpt lat="44.54201" lon="2.30972">
        <ele>235.95</ele>
        <time>2019-10-29T09:35:45.001Z</time>
      </trkpt>
      <trkpt lat="44.54286" lon="2.30757">
        <ele>236.416</ele>
        <time>2019-10-29T09:36:15.001Z</time>
      </trkpt>
      <trkpt lat="44.54394" lon="2.30551">
        <ele>236.287</ele>
        <time>2019-10-29T09:36:48.001Z</time>
      </trkpt>
      <trkpt lat="44.54526" lon="2.30397">
        <ele>237.14</ele>
        <time>2019-10-29T09:37:18.001Z</time>
      </trkpt>
      <trkpt lat="44.54653" lon="2.30179">
        <ele>237.544</ele>
        <time>2019-10-29T09:37:48.001Z</time>
      </trkpt>
      <trkpt lat="44.54753" lon="2.29897">
        <ele>233.922</ele>
        <time>2019-10-29T09:38:18.001Z</time>
      </trkpt>
      <trkpt lat="44.54877" lon="2.29602">
        <ele>228.998</ele>
        <time>2019-10-29T09:38:48.001Z</time>
      </trkpt>
      <trkpt lat="44.55022" lon="2.29319">
        <ele>225.518</ele>
        <time>2019-10-29T09:39:18.001Z</time>
      </trkpt>
      <trkpt lat="44.55148" lon="2.29068">
        <ele>224.316</ele>
        <time>2019-10-29T09:39:48.001Z</time>
      </trkpt>
      <trkpt lat="44.55269" lon="2.2885">
        <ele>225.666</ele>
        <time>2019-10-29T09:40:18.001Z</time>
      </trkpt>
      <trkpt lat="44.55386" lon="2.28639">
        <ele>227.339</ele>
        <time>2019-10-29T09:40:48.001Z</time>
      </trkpt>
      <trkpt lat="44.55486" lon="2.28437">
        <ele>226.863</ele>
        <time>2019-10-29T09:41:18.001Z</time>
      </trkpt>
      <trkpt lat="44.55551" lon="2.28204">
        <ele>226.541</ele>
        <time>2019-10-29T09:41:48.001Z</time>
      </trkpt>
      <trkpt lat="44.55625" lon="2.27995">
        <ele>223.597</ele>
        <time>2019-10-29T09:42:18.001Z</time>
      </trkpt>
      <trkpt lat="44.55719" lon="2.27806">
        <ele>223.039</ele>
        <time>2019-10-29T09:42:48.001Z</time>
      </trkpt>
      <trkpt lat="44.55819" lon="2.27607">
        <ele>222.186</ele>
        <time>2019-10-29T09:43:18.001Z</time>
      </trkpt>
      <trkpt lat="44.55882" lon="2.27358">
        <ele>220.426</ele>
        <time>2019-10-29T09:43:48.001Z</time>
      </trkpt>
      <trkpt lat="44.55858" lon="2.27105">
        <ele>217.461</ele>
        <time>2019-10-29T09:44:18.001Z</time>
      </trkpt>
      <trkpt lat="44.55798" lon="2.26884">
        <ele>217.21</ele>
        <time>2019-10-29T09:44:48.001Z</time>
      </trkpt>
      <trkpt lat="44.55724" lon="2.26697">
        <ele>220.123</ele>
        <time>2019-10-29T09:45:18.001Z</time>
      </trkpt>
      <trkpt lat="44.55719" lon="2.26489">
        <ele>221.789</ele>
        <time>2019-10-29T09:45:48.001Z</time>
      </trkpt>
      <trkpt lat="44.55759" lon="2.26279">
        <ele>219.056</ele>
        <time>2019-10-29T09:46:18.001Z</time>
      </trkpt>
      <trkpt lat="44.55837" lon="2.26064">
        <ele>218.508</ele>
        <time>2019-10-29T09:46:48.001Z</time>
      </trkpt>
      <trkpt lat="44.55928" lon="2.2585">
        <ele>218.3</ele>
        <time>2019-10-29T09:47:18.001Z</time>
      </trkpt>
      <trkpt lat="44.56024" lon="2.25627">
        <ele>216.305</ele>
        <time>2019-10-29T09:47:48.001Z</time>
      </trkpt>
      <trkpt lat="44.56132" lon="2.25386">
        <ele>211.117</ele>
        <time>2019-10-29T09:48:21.001Z</time>
      </trkpt>
      <trkpt lat="44.56211" lon="2.25154">
        <ele>210.943</ele>
        <time>2019-10-29T09:48:51.001Z</time>
      </trkpt>
      <trkpt lat="44.5625" lon="2.24911">
        <ele>211.045</ele>
        <time>2019-10-29T09:49:21.001Z</time>
      </trkpt>
      <trkpt lat="44.56324" lon="2.24794">
        <ele>211.62</ele>
        <time>2019-10-29T09:49:51.001Z</time>
      </trkpt>
      <trkpt lat="44.56401" lon="2.24821">
        <ele>215.83</ele>
        <time>2019-10-29T09:57:54.001Z</time>
      </trkpt>
      <trkpt lat="44.5647" lon="2.2485">
        <ele>218.449</ele>
        <time>2019-10-29T09:58:24.001Z</time>
      </trkpt>
      <trkpt lat="44.56529" lon="2.24877">
        <ele>220.645</ele>
        <time>2019-10-29T09:58:54.001Z</time>
      </trkpt>
      <trkpt lat="44.56591" lon="2.24892">
        <ele>228.251</ele>
        <time>2019-10-29T09:59:24.001Z</time>
      </trkpt>
      <trkpt lat="44.5665" lon="2.24931">
        <ele>230.821</ele>
        <time>2019-10-29T09:59:54.001Z</time>
      </trkpt>
      <trkpt lat="44.56708" lon="2.24951">
        <ele>233.298</ele>
        <time>2019-10-29T10:00:24.001Z</time>
      </trkpt>
      <trkpt lat="44.56767" lon="2.24963">
        <ele>239.087</ele>
        <time>2019-10-29T10:00:57.001Z</time>
      </trkpt>
      <trkpt lat="44.5682" lon="2.24923">
        <ele>243.224</ele>
        <time>2019-10-29T10:01:27.001Z</time>
      </trkpt>
      <trkpt lat="44.56869" lon="2.24875">
        <ele>246.408</ele>
        <time>2019-10-29T10:01:57.001Z</time>
      </trkpt>
      <trkpt lat="44.56924" lon="2.24857">
        <ele>250.951</ele>
        <time>2019-10-29T10:02:27.001Z</time>
      </trkpt>
      <trkpt lat="44.56981" lon="2.24852">
        <ele>253.918</ele>
        <time>2019-10-29T10:02:57.001Z</time>
      </trkpt>
      <trkpt lat="44.57031" lon="2.2481">
        <ele>259.422</ele>
        <time>2019-10-29T10:03:27.001Z</time>
      </trkpt>
      <trkpt lat="44.57084" lon="2.24771">
        <ele>266.991</ele>
        <time>2019-10-29T10:03:57.001Z</time>
      </trkpt>
      <trkpt lat="44.57138" lon="2.24734">
        <ele>271.441</ele>
        <time>2019-10-29T10:04:30.001Z</time>
      </trkpt>
      <trkpt lat="44.57192" lon="2.24686">
        <ele>273.715</ele>
        <time>2019-10-29T10:05:00Z</time>
      </trkpt>
      <trkpt lat="44.57246" lon="2.24646">
        <ele>278.06</ele>
        <time>2019-10-29T10:05:30.001Z</time>
      </trkpt>
      <trkpt lat="44.57302" lon="2.24639">
        <ele>275.765</ele>
        <time>2019-10-29T10:06:00Z</time>
      </trkpt>
      <trkpt lat="44.57351" lon="2.24596">
        <ele>279.311</ele>
        <time>2019-10-29T10:06:30.001Z</time>
      </trkpt>
      <trkpt lat="44.57385" lon="2.24536">
        <ele>287.856</ele>
        <time>2019-10-29T10:07:00Z</time>
      </trkpt>
      <trkpt lat="44.5742" lon="2.24449">
        <ele>293.074</ele>
        <time>2019-10-29T10:07:33.001Z</time>
      </trkpt>
      <trkpt lat="44.57475" lon="2.24362">
        <ele>290.582</ele>
        <time>2019-10-29T10:08:03.001Z</time>
      </trkpt>
      <trkpt lat="44.57545" lon="2.24322">
        <ele>298.813</ele>
        <time>2019-10-29T10:08:33.001Z</time>
      </trkpt>
      <trkpt lat="44.57587" lon="2.24388">
        <ele>305.491</ele>
        <time>2019-10-29T10:09:03.001Z</time>
      </trkpt>
      <trkpt lat="44.57627" lon="2.24439">
        <ele>311.881</ele>
        <time>2019-10-29T10:09:36.001Z</time>
      </trkpt>
      <trkpt lat="44.57714" lon="2.24397">
        <ele>310.224</ele>
        <time>2019-10-29T10:10:06.001Z</time>
      </trkpt>
      <trkpt lat="44.57847" lon="2.24073">
        <ele>282.046</ele>
        <time>2019-10-29T10:10:36.001Z</time>
      </trkpt>
      <trkpt lat="44.58047" lon="2.23671">
        <ele>240.182</ele>
        <time>2019-10-29T10:11:06.001Z</time>
      </trkpt>
      <trkpt lat="44.58294" lon="2.23238">
        <ele>204.716</ele>
        <time>2019-10-29T10:11:36.001Z</time>
      </trkpt>
      <trkpt lat="44.58503" lon="2.22862">
        <ele>183.439</ele>
        <time>2019-10-29T10:12:06.001Z</time>
      </trkpt>
      <trkpt lat="44.58685" lon="2.22962">
        <ele>183.01</ele>
        <time>2019-10-29T10:12:36.001Z</time>
      </trkpt>
      <trkpt lat="44.58774" lon="2.2319">
        <ele>185.73</ele>
        <time>2019-10-29T10:13:06.001Z</time>
      </trkpt>
      <trkpt lat="44.58866" lon="2.23251">
        <ele>189.392</ele>
        <time>2019-10-29T10:13:36.001Z</time>
      </trkpt>
      <trkpt lat="44.58941" lon="2.23203">
        <ele>197.515</ele>
        <time>2019-10-29T10:14:06.001Z</time>
      </trkpt>
      <trkpt lat="44.59002" lon="2.23097">
        <ele>200.276</ele>
        <time>2019-10-29T10:14:36.001Z</time>
      </trkpt>
      <trkpt lat="44.59057" lon="2.23001">
        <ele>202.007</ele>
        <time>2019-10-29T10:15:06.001Z</time>
      </trkpt>
      <trkpt lat="44.59126" lon="2.22936">
        <ele>204.455</ele>
        <time>2019-10-29T10:15:36.001Z</time>
      </trkpt>
      <trkpt lat="44.59191" lon="2.22845">
        <ele>209.383</ele>
        <time>2019-10-29T10:16:06.001Z</time>
      </trkpt>
      <trkpt lat="44.593" lon="2.22817">
        <ele>209.322</ele>
        <time>2019-10-29T10:16:36.001Z</time>
      </trkpt>
      <trkpt lat="44.59411" lon="2.22822">
        <ele>211.424</ele>
        <time>2019-10-29T10:17:06.001Z</time>
      </trkpt>
      <trkpt lat="44.5952" lon="2.22895">
        <ele>208.168</ele>
        <time>2019-10-29T10:17:36.001Z</time>
      </trkpt>
      <trkpt lat="44.59608" lon="2.23001">
        <ele>214.308</ele>
        <time>2019-10-29T10:18:06.001Z</time>
      </trkpt>
      <trkpt lat="44.59712" lon="2.23097">
        <ele>214.605</ele>
        <time>2019-10-29T10:18:36.001Z</time>
      </trkpt>
      <trkpt lat="44.59818" lon="2.23165">
        <ele>212.318</ele>
        <time>2019-10-29T10:19:06.001Z</time>
      </trkpt>
      <trkpt lat="44.59951" lon="2.23194">
        <ele>209.393</ele>
        <time>2019-10-29T10:19:39.001Z</time>
      </trkpt>
      <trkpt lat="44.6005" lon="2.23166">
        <ele>217.267</ele>
        <time>2019-10-29T10:20:09.001Z</time>
      </trkpt>
      <trkpt lat="44.60109" lon="2.23119">
        <ele>221.111</ele>
        <time>2019-10-29T10:20:39.001Z</time>
      </trkpt>
      <trkpt lat="44.60159" lon="2.23057">
        <ele>227.178</ele>
        <time>2019-10-29T10:21:12.001Z</time>
      </trkpt>
      <trkpt lat="44.602" lon="2.23054">
        <ele>234.835</ele>
        <time>2019-10-29T10:21:45.001Z</time>
      </trkpt>
      <trkpt lat="44.60224" lon="2.23113">
        <ele>237.184</ele>
        <time>2019-10-29T10:22:15.001Z</time>
      </trkpt>
      <trkpt lat="44.60285" lon="2.23095">
        <ele>236.503</ele>
        <time>2019-10-29T10:22:45.001Z</time>
      </trkpt>
      <trkpt lat="44.60335" lon="2.23058">
        <ele>239.883</ele>
        <time>2019-10-29T10:23:15.001Z</time>
      </trkpt>
      <trkpt lat="44.60392" lon="2.23018">
        <ele>242.695</ele>
        <time>2019-10-29T10:23:45.001Z</time>
      </trkpt>
      <trkpt lat="44.60434" lon="2.22951">
        <ele>248.96</ele>
        <time>2019-10-29T10:24:15.001Z</time>
      </trkpt>
      <trkpt lat="44.60486" lon="2.22908">
        <ele>255.523</ele>
        <time>2019-10-29T10:24:45.001Z</time>
      </trkpt>
      <trkpt lat="44.60544" lon="2.22871">
        <ele>261.815</ele>
        <time>2019-10-29T10:25:18.001Z</time>
      </trkpt>
      <trkpt lat="44.60605" lon="2.22846">
        <ele>268.322</ele>
        <time>2019-10-29T10:25:48.001Z</time>
      </trkpt>
      <trkpt lat="44.6067" lon="2.22836">
        <ele>272.211</ele>
        <time>2019-10-29T10:26:18.001Z</time>
      </trkpt>
      <trkpt lat="44.6073" lon="2.22851">
        <ele>269.755</ele>
        <time>2019-10-29T10:26:48.001Z</time>
      </trkpt>
      <trkpt lat="44.60787" lon="2.22858">
        <ele>271.501</ele>
        <time>2019-10-29T10:27:18.001Z</time>
      </trkpt>
      <trkpt lat="44.60848" lon="2.22822">
        <ele>274.139</ele>
        <time>2019-10-29T10:27:48.001Z</time>
      </trkpt>
      <trkpt lat="44.60872" lon="2.22738">
        <ele>283.049</ele>
        <time>2019-10-29T10:28:18.001Z</time>
      </trkpt>
      <trkpt lat="44.60898" lon="2.22661">
        <ele>289.396</ele>
        <time>2019-10-29T10:28:48.001Z</time>
      </trkpt>
      <trkpt lat="44.6096" lon="2.22657">
        <ele>298.368</ele>
        <time>2019-10-29T10:29:18.001Z</time>
      </trkpt>
      <trkpt lat="44.61026" lon="2.22659">
        <ele>297.847</ele>
        <time>2019-10-29T10:29:48.001Z</time>
      </trkpt>
      <trkpt lat="44.61062" lon="2.226">
        <ele>293.945</ele>
        <time>2019-10-29T10:30:18.001Z</time>
      </trkpt>
      <trkpt lat="44.61029" lon="2.22519">
        <ele>298.206</ele>
        <time>2019-10-29T10:30:48.001Z</time>
      </trkpt>
      <trkpt lat="44.61028" lon="2.22436">
        <ele>306.261</ele>
        <time>2019-10-29T10:31:21.001Z</time>
      </trkpt>
      <trkpt lat="44.61089" lon="2.224">
        <ele>303.514</ele>
        <time>2019-10-29T10:31:51.001Z</time>
      </trkpt>
      <trkpt lat="44.611" lon="2.22315">
        <ele>302.315</ele>
        <time>2019-10-29T10:32:21.001Z</time>
      </trkpt>
      <trkpt lat="44.61115" lon="2.22228">
        <ele>308.956</ele>
        <time>2019-10-29T10:32:51.001Z</time>
      </trkpt>
      <trkpt lat="44.61172" lon="2.22165">
        <ele>309.556</ele>
        <time>2019-10-29T10:33:21.001Z</time>
      </trkpt>
      <trkpt lat="44.61222" lon="2.22113">
        <ele>313.15</ele>
        <time>2019-10-29T10:33:51.001Z</time>
      </trkpt>
      <trkpt lat="44.61296" lon="2.22097">
        <ele>317.771</ele>
        <time>2019-10-29T10:34:21.001Z</time>
      </trkpt>
      <trkpt lat="44.61352" lon="2.22046">
        <ele>318.541</ele>
        <time>2019-10-29T10:34:51.001Z</time>
      </trkpt>
      <trkpt lat="44.61378" lon="2.2196">
        <ele>320.248</ele>
        <time>2019-10-29T10:35:21.001Z</time>
      </trkpt>
      <trkpt lat="44.61374" lon="2.21863">
        <ele>321.579</ele>
        <time>2019-10-29T10:35:51.001Z</time>
      </trkpt>
      <trkpt lat="44.6137" lon="2.21773">
        <ele>323.815</ele>
        <time>2019-10-29T10:36:21.001Z</time>
      </trkpt>
      <trkpt lat="44.61341" lon="2.21685">
        <ele>332.25</ele>
        <time>2019-10-29T10:36:51.001Z</time>
      </trkpt>
      <trkpt lat="44.6135" lon="2.21603">
        <ele>329.045</ele>
        <time>2019-10-29T10:37:21.001Z</time>
      </trkpt>
      <trkpt lat="44.61389" lon="2.21526">
        <ele>330.288</ele>
        <time>2019-10-29T10:37:51.001Z</time>
      </trkpt>
      <trkpt lat="44.61398" lon="2.21415">
        <ele>331.485</ele>
        <time>2019-10-29T10:38:21.001Z</time>
      </trkpt>
      <trkpt lat="44.61438" lon="2.21322">
        <ele>332.684</ele>
        <time>2019-10-29T10:38:51.001Z</time>
      </trkpt>
      <trkpt lat="44.61482" lon="2.21235">
        <ele>334.451</ele>
        <time>2019-10-29T10:39:21.001Z</time>
      </trkpt>
      <trkpt lat="44.61529" lon="2.21146">
        <ele>337.591</ele>
        <time>2019-10-29T10:39:51.001Z</time>
      </trkpt>
      <trkpt lat="44.61613" lon="2.21116">
        <ele>339.383</ele>
        <time>2019-10-29T10:40:21.001Z</time>
      </trkpt>
      <trkpt lat="44.61664" lon="2.21026">
        <ele>341.641</ele>
        <time>2019-10-29T10:40:51.001Z</time>
      </trkpt>
      <trkpt lat="44.61732" lon="2.20952">
        <ele>343.551</ele>
        <time>2019-10-29T10:41:21.001Z</time>
      </trkpt>
      <trkpt lat="44.61745" lon="2.20813">
        <ele>345.648</ele>
        <time>2019-10-29T10:41:51.001Z</time>
      </trkpt>
      <trkpt lat="44.6179" lon="2.20675">
        <ele>351.179</ele>
        <time>2019-10-29T10:42:21.001Z</time>
      </trkpt>
      <trkpt lat="44.61806" lon="2.20517">
        <ele>348.137</ele>
        <time>2019-10-29T10:42:54.001Z</time>
      </trkpt>
      <trkpt lat="44.61854" lon="2.20389">
        <ele>354.176</ele>
        <time>2019-10-29T10:43:24.001Z</time>
      </trkpt>
      <trkpt lat="44.619" lon="2.20274">
        <ele>352.378</ele>
        <time>2019-10-29T10:43:54.001Z</time>
      </trkpt>
      <trkpt lat="44.61863" lon="2.20203">
        <ele>352.82</ele>
        <time>2019-10-29T10:44:24.001Z</time>
      </trkpt>
      <trkpt lat="44.61835" lon="2.20137">
        <ele>357.305</ele>
        <time>2019-10-29T10:44:54.001Z</time>
      </trkpt>
      <trkpt lat="44.61819" lon="2.20063">
        <ele>366.352</ele>
        <time>2019-10-29T10:45:24.001Z</time>
      </trkpt>
      <trkpt lat="44.61779" lon="2.20016">
        <ele>372.775</ele>
        <time>2019-10-29T10:45:54.001Z</time>
      </trkpt>
      <trkpt lat="44.61755" lon="2.19943">
        <ele>376.7</ele>
        <time>2019-10-29T10:46:24.001Z</time>
      </trkpt>
      <trkpt lat="44.61713" lon="2.19901">
        <ele>378.597</ele>
        <time>2019-10-29T10:46:54.001Z</time>
      </trkpt>
      <trkpt lat="44.61672" lon="2.1986">
        <ele>384.33</ele>
        <time>2019-10-29T10:47:24.001Z</time>
      </trkpt>
      <trkpt lat="44.61696" lon="2.19784">
        <ele>388.172</ele>
        <time>2019-10-29T10:48:00Z</time>
      </trkpt>
      <trkpt lat="44.61697" lon="2.19703">
        <ele>386.825</ele>
        <time>2019-10-29T10:48:33.001Z</time>
      </trkpt>
      <trkpt lat="44.6173" lon="2.19637">
        <ele>387.55</ele>
        <time>2019-10-29T10:49:03.001Z</time>
      </trkpt>
      <trkpt lat="44.61744" lon="2.19558">
        <ele>390.213</ele>
        <time>2019-10-29T10:49:36.001Z</time>
      </trkpt>
      <trkpt lat="44.61737" lon="2.19477">
        <ele>394.212</ele>
        <time>2019-10-29T10:50:06.001Z</time>
      </trkpt>
      <trkpt lat="44.61718" lon="2.19409">
        <ele>401.893</ele>
        <time>2019-10-29T10:50:36.001Z</time>
      </trkpt>
      <trkpt lat="44.61705" lon="2.19312">
        <ele>402.492</ele>
        <time>2019-10-29T10:51:09.001Z</time>
      </trkpt>
      <trkpt lat="44.61689" lon="2.19225">
        <ele>398.165</ele>
        <time>2019-10-29T10:55:51.001Z</time>
      </trkpt>
      <trkpt lat="44.61594" lon="2.19219">
        <ele>391.878</ele>
        <time>2019-10-29T11:01:12.001Z</time>
      </trkpt>
      <trkpt lat="44.61565" lon="2.1884">
        <ele>374.42</ele>
        <time>2019-10-29T11:01:42.001Z</time>
      </trkpt>
      <trkpt lat="44.6153" lon="2.18328">
        <ele>346.627</ele>
        <time>2019-10-29T11:02:12.001Z</time>
      </trkpt>
      <trkpt lat="44.6129" lon="2.18199">
        <ele>327.657</ele>
        <time>2019-10-29T11:02:42.001Z</time>
      </trkpt>
      <trkpt lat="44.61108" lon="2.18056">
        <ele>326.722</ele>
        <time>2019-10-29T11:03:12.001Z</time>
      </trkpt>
      <trkpt lat="44.61065" lon="2.1791">
        <ele>332.492</ele>
        <time>2019-10-29T11:03:42.001Z</time>
      </trkpt>
      <trkpt lat="44.60979" lon="2.17815">
        <ele>336.086</ele>
        <time>2019-10-29T11:04:15.001Z</time>
      </trkpt>
      <trkpt lat="44.60942" lon="2.17714">
        <ele>338.501</ele>
        <time>2019-10-29T11:04:45.001Z</time>
      </trkpt>
      <trkpt lat="44.60954" lon="2.17563">
        <ele>342.812</ele>
        <time>2019-10-29T11:05:15.001Z</time>
      </trkpt>
      <trkpt lat="44.60883" lon="2.17201">
        <ele>329.009</ele>
        <time>2019-10-29T11:05:45.001Z</time>
      </trkpt>
      <trkpt lat="44.61122" lon="2.16811">
        <ele>301.837</ele>
        <time>2019-10-29T11:06:15.001Z</time>
      </trkpt>
      <trkpt lat="44.61358" lon="2.16425">
        <ele>266.632</ele>
        <time>2019-10-29T11:06:45.001Z</time>
      </trkpt>
      <trkpt lat="44.61397" lon="2.16112">
        <ele>269.266</ele>
        <time>2019-10-29T11:07:15.001Z</time>
      </trkpt>
      <trkpt lat="44.61375" lon="2.15873">
        <ele>271.669</ele>
        <time>2019-10-29T11:07:45.001Z</time>
      </trkpt>
      <trkpt lat="44.61392" lon="2.15603">
        <ele>270.622</ele>
        <time>2019-10-29T11:08:15.001Z</time>
      </trkpt>
      <trkpt lat="44.61466" lon="2.15337">
        <ele>269.47</ele>
        <time>2019-10-29T11:08:45.001Z</time>
      </trkpt>
      <trkpt lat="44.61519" lon="2.15157">
        <ele>274.086</ele>
        <time>2019-10-29T11:09:15.001Z</time>
      </trkpt>
      <trkpt lat="44.61485" lon="2.14906">
        <ele>265.01</ele>
        <time>2019-10-29T11:09:45.001Z</time>
      </trkpt>
      <trkpt lat="44.61474" lon="2.14659">
        <ele>262.153</ele>
        <time>2019-10-29T11:10:15.001Z</time>
      </trkpt>
      <trkpt lat="44.61476" lon="2.14518">
        <ele>262.665</ele>
        <time>2019-10-29T11:10:45.001Z</time>
      </trkpt>
      <trkpt lat="44.61476" lon="2.14325">
        <ele>260.57</ele>
        <time>2019-10-29T11:11:15.001Z</time>
      </trkpt>
      <trkpt lat="44.61476" lon="2.14149">
        <ele>264.094</ele>
        <time>2019-10-29T11:11:45.001Z</time>
      </trkpt>
      <trkpt lat="44.61477" lon="2.14027">
        <ele>266.68</ele>
        <time>2019-10-29T11:12:15.001Z</time>
      </trkpt>
      <trkpt lat="44.61475" lon="2.13909">
        <ele>270.756</ele>
        <time>2019-10-29T11:12:45.001Z</time>
      </trkpt>
      <trkpt lat="44.61479" lon="2.13803">
        <ele>278.396</ele>
        <time>2019-10-29T11:13:15.001Z</time>
      </trkpt>
      <trkpt lat="44.61477" lon="2.13699">
        <ele>277.351</ele>
        <time>2019-10-29T11:13:45.001Z</time>
      </trkpt>
      <trkpt lat="44.61477" lon="2.13569">
        <ele>278.162</ele>
        <time>2019-10-29T11:14:15.001Z</time>
      </trkpt>
      <trkpt lat="44.61479" lon="2.13375">
        <ele>276.238</ele>
        <time>2019-10-29T11:14:45.001Z</time>
      </trkpt>
      <trkpt lat="44.61478" lon="2.1317">
        <ele>275.479</ele>
        <time>2019-10-29T11:15:15.001Z</time>
      </trkpt>
      <trkpt lat="44.61479" lon="2.1299">
        <ele>281.182</ele>
        <time>2019-10-29T11:15:48.001Z</time>
      </trkpt>
      <trkpt lat="44.61477" lon="2.12798">
        <ele>281.316</ele>
        <time>2019-10-29T11:16:18.001Z</time>
      </trkpt>
      <trkpt lat="44.61502" lon="2.12615">
        <ele>284.031</ele>
        <time>2019-10-29T11:16:48.001Z</time>
      </trkpt>
      <trkpt lat="44.6157" lon="2.12487">
        <ele>285.384</ele>
        <time>2019-10-29T11:17:18.001Z</time>
      </trkpt>
      <trkpt lat="44.61634" lon="2.12363">
        <ele>289.953</ele>
        <time>2019-10-29T11:17:48.001Z</time>
      </trkpt>
      <trkpt lat="44.61706" lon="2.12225">
        <ele>291.551</ele>
        <time>2019-10-29T11:18:18.001Z</time>
      </trkpt>
      <trkpt lat="44.6176" lon="2.12124">
        <ele>290.946</ele>
        <time>2019-10-29T11:18:48.001Z</time>
      </trkpt>
      <trkpt lat="44.61797" lon="2.12055">
        <ele>294.568</ele>
        <time>2019-10-29T11:19:18.001Z</time>
      </trkpt>
      <trkpt lat="44.61841" lon="2.1197">
        <ele>300.288</ele>
        <time>2019-10-29T11:19:48.001Z</time>
      </trkpt>
      <trkpt lat="44.61892" lon="2.11873">
        <ele>303.608</ele>
        <time>2019-10-29T11:20:18.001Z</time>
      </trkpt>
      <trkpt lat="44.61946" lon="2.11775">
        <ele>305.877</ele>
        <time>2019-10-29T11:20:48.001Z</time>
      </trkpt>
      <trkpt lat="44.61997" lon="2.11674">
        <ele>307.591</ele>
        <time>2019-10-29T11:21:18.001Z</time>
      </trkpt>
      <trkpt lat="44.62036" lon="2.116">
        <ele>310.549</ele>
        <time>2019-10-29T11:21:48.001Z</time>
      </trkpt>
      <trkpt lat="44.62068" lon="2.11541">
        <ele>314.438</ele>
        <time>2019-10-29T11:22:18.001Z</time>
      </trkpt>
      <trkpt lat="44.621" lon="2.11478">
        <ele>317.047</ele>
        <time>2019-10-29T11:22:51.001Z</time>
      </trkpt>
      <trkpt lat="44.62077" lon="2.11389">
        <ele>318.5</ele>
        <time>2019-10-29T11:23:21.001Z</time>
      </trkpt>
      <trkpt lat="44.62018" lon="2.11284">
        <ele>317.09</ele>
        <time>2019-10-29T11:23:51.001Z</time>
      </trkpt>
      <trkpt lat="44.6196" lon="2.11205">
        <ele>317.838</ele>
        <time>2019-10-29T11:24:21.001Z</time>
      </trkpt>
      <trkpt lat="44.61907" lon="2.11138">
        <ele>324.064</ele>
        <time>2019-10-29T11:24:51.001Z</time>
      </trkpt>
      <trkpt lat="44.61875" lon="2.11082">
        <ele>327.456</ele>
        <time>2019-10-29T11:25:21.001Z</time>
      </trkpt>
      <trkpt lat="44.61877" lon="2.11007">
        <ele>336.547</ele>
        <time>2019-10-29T11:25:51.001Z</time>
      </trkpt>
      <trkpt lat="44.61886" lon="2.10921">
        <ele>341.89</ele>
        <time>2019-10-29T11:26:21.001Z</time>
      </trkpt>
      <trkpt lat="44.61884" lon="2.10837">
        <ele>341.202</ele>
        <time>2019-10-29T11:26:51.001Z</time>
      </trkpt>
      <trkpt lat="44.61946" lon="2.10793">
        <ele>344.828</ele>
        <time>2019-10-29T11:27:24.001Z</time>
      </trkpt>
      <trkpt lat="44.62002" lon="2.10764">
        <ele>347.169</ele>
        <time>2019-10-29T11:27:54.001Z</time>
      </trkpt>
      <trkpt lat="44.62045" lon="2.10668">
        <ele>345.154</ele>
        <time>2019-10-29T11:31:36.001Z</time>
      </trkpt>
      <trkpt lat="44.62102" lon="2.10307">
        <ele>330.024</ele>
        <time>2019-10-29T11:32:06.001Z</time>
      </trkpt>
      <trkpt lat="44.6219" lon="2.10323">
        <ele>321.84</ele>
        <time>2019-10-29T11:32:36.001Z</time>
      </trkpt>
      <trkpt lat="44.62227" lon="2.10393">
        <ele>327.408</ele>
        <time>2019-10-29T11:33:06.001Z</time>
      </trkpt>
      <trkpt lat="44.62283" lon="2.10401">
        <ele>338.136</ele>
        <time>2019-10-29T11:33:42.001Z</time>
      </trkpt>
      <trkpt lat="44.6233" lon="2.10359">
        <ele>342.006</ele>
        <time>2019-10-29T11:34:12.001Z</time>
      </trkpt>
      <trkpt lat="44.62366" lon="2.10389">
        <ele>345.9</ele>
        <time>2019-10-29T11:34:42.001Z</time>
      </trkpt>
      <trkpt lat="44.62358" lon="2.1047">
        <ele>345.751</ele>
        <time>2019-10-29T11:35:12.001Z</time>
      </trkpt>
      <trkpt lat="44.62412" lon="2.10465">
        <ele>348.608</ele>
        <time>2019-10-29T11:35:42.001Z</time>
      </trkpt>
      <trkpt lat="44.62462" lon="2.10416">
        <ele>354.925</ele>
        <time>2019-10-29T11:36:15.001Z</time>
      </trkpt>
      <trkpt lat="44.62486" lon="2.10344">
        <ele>359.262</ele>
        <time>2019-10-29T11:36:45.001Z</time>
      </trkpt>
      <trkpt lat="44.62518" lon="2.10266">
        <ele>358.52</ele>
        <time>2019-10-29T11:37:15.001Z</time>
      </trkpt>
      <trkpt lat="44.62561" lon="2.10221">
        <ele>360.741</ele>
        <time>2019-10-29T11:37:45.001Z</time>
      </trkpt>
      <trkpt lat="44.62527" lon="2.09995">
        <ele>356.118</ele>
        <time>2019-10-29T11:38:15.001Z</time>
      </trkpt>
      <trkpt lat="44.62687" lon="2.09874">
        <ele>350.575</ele>
        <time>2019-10-29T11:38:45.001Z</time>
      </trkpt>
      <trkpt lat="44.62746" lon="2.09819">
        <ele>355.267</ele>
        <time>2019-10-29T11:39:15.001Z</time>
      </trkpt>
      <trkpt lat="44.62793" lon="2.09759">
        <ele>358.336</ele>
        <time>2019-10-29T11:39:45.001Z</time>
      </trkpt>
      <trkpt lat="44.62845" lon="2.09738">
        <ele>364.634</ele>
        <time>2019-10-29T11:40:18.001Z</time>
      </trkpt>
      <trkpt lat="44.62843" lon="2.09808">
        <ele>366.015</ele>
        <time>2019-10-29T11:40:48.001Z</time>
      </trkpt>
      <trkpt lat="44.62839" lon="2.09883">
        <ele>370.69</ele>
        <time>2019-10-29T11:41:18.001Z</time>
      </trkpt>
      <trkpt lat="44.62887" lon="2.09926">
        <ele>372.402</ele>
        <time>2019-10-29T11:41:48.001Z</time>
      </trkpt>
      <trkpt lat="44.62942" lon="2.0994">
        <ele>377.127</ele>
        <time>2019-10-29T11:42:18.001Z</time>
      </trkpt>
      <trkpt lat="44.62993" lon="2.09985">
        <ele>381.939</ele>
        <time>2019-10-29T11:42:51.001Z</time>
      </trkpt>
      <trkpt lat="44.6304" lon="2.10031">
        <ele>384.353</ele>
        <time>2019-10-29T11:43:24.001Z</time>
      </trkpt>
      <trkpt lat="44.63135" lon="2.09922">
        <ele>376.079</ele>
        <time>2019-10-29T11:43:54.001Z</time>
      </trkpt>
      <trkpt lat="44.63242" lon="2.09808">
        <ele>373.634</ele>
        <time>2019-10-29T11:44:24.001Z</time>
      </trkpt>
      <trkpt lat="44.63297" lon="2.09723">
        <ele>381.504</ele>
        <time>2019-10-29T11:44:54.001Z</time>
      </trkpt>
      <trkpt lat="44.63374" lon="2.09759">
        <ele>385.233</ele>
        <time>2019-10-29T11:45:24.001Z</time>
      </trkpt>
      <trkpt lat="44.63458" lon="2.0976">
        <ele>387.586</ele>
        <time>2019-10-29T11:45:54.001Z</time>
      </trkpt>
      <trkpt lat="44.6359" lon="2.09816">
        <ele>378.449</ele>
        <time>2019-10-29T11:46:24.001Z</time>
      </trkpt>
      <trkpt lat="44.63763" lon="2.096">
        <ele>364.758</ele>
        <time>2019-10-29T11:46:54.001Z</time>
      </trkpt>
      <trkpt lat="44.63927" lon="2.09378">
        <ele>350.607</ele>
        <time>2019-10-29T11:47:24.001Z</time>
      </trkpt>
      <trkpt lat="44.6411" lon="2.09326">
        <ele>317.952</ele>
        <time>2019-10-29T11:47:54.001Z</time>
      </trkpt>
      <trkpt lat="44.64238" lon="2.09351">
        <ele>298.238</ele>
        <time>2019-10-29T11:48:24.001Z</time>
      </trkpt>
      <trkpt lat="44.64327" lon="2.09611">
        <ele>279.965</ele>
        <time>2019-10-29T11:48:54.001Z</time>
      </trkpt>
      <trkpt lat="44.64386" lon="2.09909">
        <ele>262.923</ele>
        <time>2019-10-29T11:49:24.001Z</time>
      </trkpt>
      <trkpt lat="44.6462" lon="2.10069">
        <ele>242.681</ele>
        <time>2019-10-29T11:49:54.001Z</time>
      </trkpt>
      <trkpt lat="44.64816" lon="2.10158">
        <ele>222.406</ele>
        <time>2019-10-29T11:50:24.001Z</time>
      </trkpt>
      <trkpt lat="44.64891" lon="2.10133">
        <ele>218.135</ele>
        <time>2019-10-29T11:51:03.001Z</time>
      </trkpt>
      <trkpt lat="44.64912" lon="2.10138">
        <ele>214.705</ele>
        <time>2019-10-29T11:56:12.001Z</time>
      </trkpt>
      <trkpt lat="44.6493" lon="2.10131">
        <ele>211.236</ele>
        <time>2019-10-29T12:10:36.001Z</time>
      </trkpt>
      <trkpt lat="44.64932" lon="2.10127">
        <ele>214.675</ele>
        <time>2019-10-29T12:14:36.001Z</time>
      </trkpt>
      <trkpt lat="44.64904" lon="2.10125">
        <ele>217.798</ele>
        <time>2019-10-29T12:15:57.001Z</time>
      </trkpt>
      <trkpt lat="44.64904" lon="2.10125">
        <ele>217.879</ele>
        <time>2019-10-29T12:16:57.001Z</time>
      </trkpt>
      <trkpt lat="44.64926" lon="2.09987">
        <ele>217.218</ele>
        <time>2019-10-29T12:23:03.001Z</time>
      </trkpt>
      <trkpt lat="44.64897" lon="2.09908">
        <ele>213.916</ele>
        <time>2019-10-29T12:23:36.001Z</time>
      </trkpt>
      <trkpt lat="44.64762" lon="2.09936">
        <ele>223.825</ele>
        <time>2019-10-29T12:24:06.001Z</time>
      </trkpt>
      <trkpt lat="44.64655" lon="2.09786">
        <ele>225.406</ele>
        <time>2019-10-29T12:24:36.001Z</time>
      </trkpt>
      <trkpt lat="44.64579" lon="2.0957">
        <ele>219.897</ele>
        <time>2019-10-29T12:25:06.001Z</time>
      </trkpt>
      <trkpt lat="44.64515" lon="2.09336">
        <ele>216.469</ele>
        <time>2019-10-29T12:25:36.001Z</time>
      </trkpt>
      <trkpt lat="44.64483" lon="2.09125">
        <ele>214.446</ele>
        <time>2019-10-29T12:26:06.001Z</time>
      </trkpt>
      <trkpt lat="44.64431" lon="2.08925">
        <ele>213.029</ele>
        <time>2019-10-29T12:26:36.001Z</time>
      </trkpt>
      <trkpt lat="44.64376" lon="2.08728">
        <ele>215.618</ele>
        <time>2019-10-29T12:27:06.001Z</time>
      </trkpt>
      <trkpt lat="44.64318" lon="2.0851">
        <ele>214.562</ele>
        <time>2019-10-29T12:27:36.001Z</time>
      </trkpt>
      <trkpt lat="44.64243" lon="2.08292">
        <ele>215.333</ele>
        <time>2019-10-29T12:28:06.001Z</time>
      </trkpt>
      <trkpt lat="44.64179" lon="2.08071">
        <ele>213.828</ele>
        <time>2019-10-29T12:28:36.001Z</time>
      </trkpt>
      <trkpt lat="44.64126" lon="2.07843">
        <ele>210.604</ele>
        <time>2019-10-29T12:29:06.001Z</time>
      </trkpt>
      <trkpt lat="44.64073" lon="2.07634">
        <ele>209.035</ele>
        <time>2019-10-29T12:29:36.001Z</time>
      </trkpt>
      <trkpt lat="44.64007" lon="2.07438">
        <ele>210.849</ele>
        <time>2019-10-29T12:30:06.001Z</time>
      </trkpt>
      <trkpt lat="44.63887" lon="2.0729">
        <ele>215.839</ele>
        <time>2019-10-29T12:30:36.001Z</time>
      </trkpt>
      <trkpt lat="44.63913" lon="2.07297">
        <ele>215.146</ele>
        <time>2019-10-29T12:31:06.001Z</time>
      </trkpt>
      <trkpt lat="44.63967" lon="2.07315">
        <ele>224.47</ele>
        <time>2019-10-29T12:31:39.001Z</time>
      </trkpt>
      <trkpt lat="44.64011" lon="2.07357">
        <ele>233.948</ele>
        <time>2019-10-29T12:32:18.001Z</time>
      </trkpt>
      <trkpt lat="44.64045" lon="2.07421">
        <ele>239.633</ele>
        <time>2019-10-29T12:32:51.001Z</time>
      </trkpt>
      <trkpt lat="44.64082" lon="2.07478">
        <ele>240.88</ele>
        <time>2019-10-29T12:33:24.001Z</time>
      </trkpt>
      <trkpt lat="44.64118" lon="2.07527">
        <ele>244.223</ele>
        <time>2019-10-29T12:33:54.001Z</time>
      </trkpt>
      <trkpt lat="44.64195" lon="2.07546">
        <ele>242.275</ele>
        <time>2019-10-29T12:34:27.001Z</time>
      </trkpt>
      <trkpt lat="44.64263" lon="2.07504">
        <ele>246.058</ele>
        <time>2019-10-29T12:34:57.001Z</time>
      </trkpt>
      <trkpt lat="44.64317" lon="2.07438">
        <ele>258.178</ele>
        <time>2019-10-29T12:35:45.001Z</time>
      </trkpt>
      <trkpt lat="44.64359" lon="2.07369">
        <ele>267.347</ele>
        <time>2019-10-29T12:36:24.001Z</time>
      </trkpt>
      <trkpt lat="44.64403" lon="2.07356">
        <ele>280.995</ele>
        <time>2019-10-29T12:37:12.001Z</time>
      </trkpt>
      <trkpt lat="44.64444" lon="2.0742">
        <ele>274.866</ele>
        <time>2019-10-29T12:37:48.001Z</time>
      </trkpt>
      <trkpt lat="44.64495" lon="2.07461">
        <ele>285.051</ele>
        <time>2019-10-29T12:38:27.001Z</time>
      </trkpt>
      <trkpt lat="44.6456" lon="2.07457">
        <ele>290.154</ele>
        <time>2019-10-29T12:39:09.001Z</time>
      </trkpt>
      <trkpt lat="44.64622" lon="2.0742">
        <ele>303.538</ele>
        <time>2019-10-29T12:39:57.001Z</time>
      </trkpt>
      <trkpt lat="44.64674" lon="2.0747">
        <ele>296.881</ele>
        <time>2019-10-29T12:40:39.001Z</time>
      </trkpt>
      <trkpt lat="44.64679" lon="2.07548">
        <ele>301.818</ele>
        <time>2019-10-29T12:41:21.001Z</time>
      </trkpt>
      <trkpt lat="44.64673" lon="2.07638">
        <ele>299.647</ele>
        <time>2019-10-29T12:42:03.001Z</time>
      </trkpt>
      <trkpt lat="44.64686" lon="2.07718">
        <ele>301.99</ele>
        <time>2019-10-29T12:42:42.001Z</time>
      </trkpt>
      <trkpt lat="44.64702" lon="2.07794">
        <ele>307.136</ele>
        <time>2019-10-29T12:43:18.001Z</time>
      </trkpt>
      <trkpt lat="44.64756" lon="2.078">
        <ele>313.474</ele>
        <time>2019-10-29T12:43:51.001Z</time>
      </trkpt>
      <trkpt lat="44.64811" lon="2.07763">
        <ele>317.641</ele>
        <time>2019-10-29T12:44:24.001Z</time>
      </trkpt>
      <trkpt lat="44.64856" lon="2.07724">
        <ele>322.186</ele>
        <time>2019-10-29T12:44:57.001Z</time>
      </trkpt>
      <trkpt lat="44.64915" lon="2.07732">
        <ele>330.7</ele>
        <time>2019-10-29T12:45:42.001Z</time>
      </trkpt>
      <trkpt lat="44.64974" lon="2.07743">
        <ele>336.157</ele>
        <time>2019-10-29T12:46:21.001Z</time>
      </trkpt>
      <trkpt lat="44.6503" lon="2.07732">
        <ele>344.428</ele>
        <time>2019-10-29T12:46:54.001Z</time>
      </trkpt>
      <trkpt lat="44.65087" lon="2.07774">
        <ele>348.465</ele>
        <time>2019-10-29T12:47:42.001Z</time>
      </trkpt>
      <trkpt lat="44.65145" lon="2.07797">
        <ele>353.551</ele>
        <time>2019-10-29T12:48:18.001Z</time>
      </trkpt>
      <trkpt lat="44.65207" lon="2.0778">
        <ele>361.218</ele>
        <time>2019-10-29T12:48:54.001Z</time>
      </trkpt>
      <trkpt lat="44.65253" lon="2.07742">
        <ele>365.778</ele>
        <time>2019-10-29T12:49:27.001Z</time>
      </trkpt>
      <trkpt lat="44.65327" lon="2.07748">
        <ele>362.364</ele>
        <time>2019-10-29T12:49:57.001Z</time>
      </trkpt>
      <trkpt lat="44.65401" lon="2.0776">
        <ele>362.275</ele>
        <time>2019-10-29T12:50:27.001Z</time>
      </trkpt>
      <trkpt lat="44.6546" lon="2.07743">
        <ele>366.095</ele>
        <time>2019-10-29T12:51:00Z</time>
      </trkpt>
      <trkpt lat="44.65525" lon="2.07735">
        <ele>375.33</ele>
        <time>2019-10-29T12:51:45.001Z</time>
      </trkpt>
      <trkpt lat="44.65587" lon="2.07766">
        <ele>375.322</ele>
        <time>2019-10-29T12:52:30.001Z</time>
      </trkpt>
      <trkpt lat="44.65682" lon="2.07793">
        <ele>377.427</ele>
        <time>2019-10-29T12:53:03.001Z</time>
      </trkpt>
      <trkpt lat="44.6577" lon="2.07761">
        <ele>380.439</ele>
        <time>2019-10-29T12:53:33.001Z</time>
      </trkpt>
      <trkpt lat="44.65858" lon="2.07726">
        <ele>383.485</ele>
        <time>2019-10-29T12:54:03.001Z</time>
      </trkpt>
      <trkpt lat="44.65953" lon="2.07653">
        <ele>377.43</ele>
        <time>2019-10-29T12:54:33.001Z</time>
      </trkpt>
      <trkpt lat="44.66047" lon="2.07591">
        <ele>368.872</ele>
        <time>2019-10-29T12:55:03.001Z</time>
      </trkpt>
      <trkpt lat="44.66115" lon="2.07549">
        <ele>365.012</ele>
        <time>2019-10-29T12:55:33.001Z</time>
      </trkpt>
      <trkpt lat="44.66164" lon="2.07519">
        <ele>369.068</ele>
        <time>2019-10-29T12:56:03.001Z</time>
      </trkpt>
      <trkpt lat="44.66218" lon="2.07487">
        <ele>378.13</ele>
        <time>2019-10-29T12:56:39.001Z</time>
      </trkpt>
      <trkpt lat="44.66274" lon="2.07455">
        <ele>385.932</ele>
        <time>2019-10-29T12:57:18.001Z</time>
      </trkpt>
      <trkpt lat="44.66328" lon="2.07418">
        <ele>393.94</ele>
        <time>2019-10-29T12:57:57.001Z</time>
      </trkpt>
      <trkpt lat="44.66383" lon="2.07374">
        <ele>401.795</ele>
        <time>2019-10-29T12:58:30.001Z</time>
      </trkpt>
      <trkpt lat="44.66426" lon="2.07321">
        <ele>410.488</ele>
        <time>2019-10-29T12:59:06.001Z</time>
      </trkpt>
      <trkpt lat="44.66485" lon="2.07265">
        <ele>418.437</ele>
        <time>2019-10-29T12:59:54.001Z</time>
      </trkpt>
      <trkpt lat="44.66549" lon="2.0725">
        <ele>427.665</ele>
        <time>2019-10-29T13:00:36.001Z</time>
      </trkpt>
      <trkpt lat="44.66632" lon="2.07187">
        <ele>426.74</ele>
        <time>2019-10-29T13:01:06.001Z</time>
      </trkpt>
      <trkpt lat="44.66701" lon="2.07108">
        <ele>427.105</ele>
        <time>2019-10-29T13:01:36.001Z</time>
      </trkpt>
      <trkpt lat="44.66786" lon="2.07024">
        <ele>427.183</ele>
        <time>2019-10-29T13:02:06.001Z</time>
      </trkpt>
      <trkpt lat="44.66866" lon="2.06943">
        <ele>421.392</ele>
        <time>2019-10-29T13:02:36.001Z</time>
      </trkpt>
      <trkpt lat="44.66936" lon="2.06869">
        <ele>420.888</ele>
        <time>2019-10-29T13:03:06.001Z</time>
      </trkpt>
      <trkpt lat="44.6702" lon="2.06783">
        <ele>429.438</ele>
        <time>2019-10-29T13:03:36.001Z</time>
      </trkpt>
      <trkpt lat="44.67087" lon="2.06674">
        <ele>432.775</ele>
        <time>2019-10-29T13:04:09.001Z</time>
      </trkpt>
      <trkpt lat="44.67146" lon="2.06617">
        <ele>431.331</ele>
        <time>2019-10-29T13:04:39.001Z</time>
      </trkpt>
      <trkpt lat="44.67203" lon="2.06559">
        <ele>432.223</ele>
        <time>2019-10-29T13:05:09.001Z</time>
      </trkpt>
      <trkpt lat="44.67257" lon="2.06501">
        <ele>436.054</ele>
        <time>2019-10-29T13:05:39.001Z</time>
      </trkpt>
      <trkpt lat="44.67316" lon="2.06461">
        <ele>440.18</ele>
        <time>2019-10-29T13:06:09.001Z</time>
      </trkpt>
      <trkpt lat="44.67391" lon="2.06432">
        <ele>440.908</ele>
        <time>2019-10-29T13:06:39.001Z</time>
      </trkpt>
      <trkpt lat="44.67465" lon="2.0641">
        <ele>441.498</ele>
        <time>2019-10-29T13:07:09.001Z</time>
      </trkpt>
      <trkpt lat="44.67538" lon="2.06393">
        <ele>447.513</ele>
        <time>2019-10-29T13:07:39.001Z</time>
      </trkpt>
      <trkpt lat="44.6761" lon="2.06373">
        <ele>450.153</ele>
        <time>2019-10-29T13:08:09.001Z</time>
      </trkpt>
      <trkpt lat="44.67692" lon="2.06348">
        <ele>452.881</ele>
        <time>2019-10-29T13:08:39.001Z</time>
      </trkpt>
      <trkpt lat="44.67811" lon="2.06198">
        <ele>447.225</ele>
        <time>2019-10-29T13:09:09.001Z</time>
      </trkpt>
      <trkpt lat="44.67959" lon="2.06128">
        <ele>444.756</ele>
        <time>2019-10-29T13:09:39.001Z</time>
      </trkpt>
      <trkpt lat="44.67959" lon="2.0588">
        <ele>431.606</ele>
        <time>2019-10-29T13:10:09.001Z</time>
      </trkpt>
      <trkpt lat="44.68092" lon="2.05704">
        <ele>421.516</ele>
        <time>2019-10-29T13:10:39.001Z</time>
      </trkpt>
      <trkpt lat="44.68165" lon="2.05607">
        <ele>427.139</ele>
        <time>2019-10-29T13:11:09.001Z</time>
      </trkpt>
      <trkpt lat="44.68209" lon="2.05549">
        <ele>431.702</ele>
        <time>2019-10-29T13:11:39.001Z</time>
      </trkpt>
      <trkpt lat="44.68248" lon="2.05494">
        <ele>436.775</ele>
        <time>2019-10-29T13:12:12.001Z</time>
      </trkpt>
      <trkpt lat="44.68296" lon="2.05449">
        <ele>440.926</ele>
        <time>2019-10-29T13:12:45.001Z</time>
      </trkpt>
      <trkpt lat="44.68356" lon="2.05416">
        <ele>447.668</ele>
        <time>2019-10-29T13:13:24.001Z</time>
      </trkpt>
      <trkpt lat="44.68411" lon="2.05404">
        <ele>450.435</ele>
        <time>2019-10-29T13:13:54.001Z</time>
      </trkpt>
      <trkpt lat="44.6847" lon="2.0541">
        <ele>457.45</ele>
        <time>2019-10-29T13:14:30.001Z</time>
      </trkpt>
      <trkpt lat="44.68521" lon="2.05407">
        <ele>459.183</ele>
        <time>2019-10-29T13:15:00Z</time>
      </trkpt>
      <trkpt lat="44.68571" lon="2.05361">
        <ele>458.848</ele>
        <time>2019-10-29T13:15:30.001Z</time>
      </trkpt>
      <trkpt lat="44.68647" lon="2.0531">
        <ele>458.92</ele>
        <time>2019-10-29T13:16:03.001Z</time>
      </trkpt>
      <trkpt lat="44.68705" lon="2.05287">
        <ele>462.699</ele>
        <time>2019-10-29T13:16:33.001Z</time>
      </trkpt>
      <trkpt lat="44.68764" lon="2.05269">
        <ele>465.494</ele>
        <time>2019-10-29T13:17:03.001Z</time>
      </trkpt>
      <trkpt lat="44.68818" lon="2.05228">
        <ele>469.055</ele>
        <time>2019-10-29T13:17:33.001Z</time>
      </trkpt>
      <trkpt lat="44.68857" lon="2.05164">
        <ele>475.042</ele>
        <time>2019-10-29T13:18:03.001Z</time>
      </trkpt>
      <trkpt lat="44.68904" lon="2.05068">
        <ele>473.549</ele>
        <time>2019-10-29T13:18:33.001Z</time>
      </trkpt>
      <trkpt lat="44.6895" lon="2.04959">
        <ele>470.093</ele>
        <time>2019-10-29T13:19:03.001Z</time>
      </trkpt>
      <trkpt lat="44.68995" lon="2.04898">
        <ele>472.497</ele>
        <time>2019-10-29T13:19:33.001Z</time>
      </trkpt>
      <trkpt lat="44.69052" lon="2.04835">
        <ele>480.524</ele>
        <time>2019-10-29T13:20:03.001Z</time>
      </trkpt>
      <trkpt lat="44.69117" lon="2.04789">
        <ele>484.723</ele>
        <time>2019-10-29T13:20:33.001Z</time>
      </trkpt>
      <trkpt lat="44.69193" lon="2.04718">
        <ele>483.015</ele>
        <time>2019-10-29T13:21:03.001Z</time>
      </trkpt>
      <trkpt lat="44.69235" lon="2.04627">
        <ele>480.548</ele>
        <time>2019-10-29T13:21:33.001Z</time>
      </trkpt>
      <trkpt lat="44.69267" lon="2.04527">
        <ele>481.378</ele>
        <time>2019-10-29T13:22:03.001Z</time>
      </trkpt>
      <trkpt lat="44.6931" lon="2.04436">
        <ele>482.542</ele>
        <time>2019-10-29T13:22:33.001Z</time>
      </trkpt>
      <trkpt lat="44.69377" lon="2.04337">
        <ele>471.634</ele>
        <time>2019-10-29T13:23:03.001Z</time>
      </trkpt>
      <trkpt lat="44.69467" lon="2.0427">
        <ele>483.4</ele>
        <time>2019-10-29T13:23:33.001Z</time>
      </trkpt>
      <trkpt lat="44.69596" lon="2.04125">
        <ele>482.053</ele>
        <time>2019-10-29T13:24:03.001Z</time>
      </trkpt>
      <trkpt lat="44.69679" lon="2.04027">
        <ele>488.529</ele>
        <time>2019-10-29T13:24:33.001Z</time>
      </trkpt>
      <trkpt lat="44.69759" lon="2.03967">
        <ele>492.854</ele>
        <time>2019-10-29T13:25:03.001Z</time>
      </trkpt>
      <trkpt lat="44.69843" lon="2.03919">
        <ele>497.522</ele>
        <time>2019-10-29T13:25:33.001Z</time>
      </trkpt>
      <trkpt lat="44.69942" lon="2.0384">
        <ele>498.964</ele>
        <time>2019-10-29T13:26:03.001Z</time>
      </trkpt>
      <trkpt lat="44.70062" lon="2.03796">
        <ele>490.101</ele>
        <time>2019-10-29T13:26:33.001Z</time>
      </trkpt>
      <trkpt lat="44.70121" lon="2.0378">
        <ele>494.912</ele>
        <time>2019-10-29T13:27:09.001Z</time>
      </trkpt>
      <trkpt lat="44.70185" lon="2.03743">
        <ele>507.342</ele>
        <time>2019-10-29T13:27:51.001Z</time>
      </trkpt>
      <trkpt lat="44.70225" lon="2.03675">
        <ele>509.827</ele>
        <time>2019-10-29T13:28:24.001Z</time>
      </trkpt>
      <trkpt lat="44.70278" lon="2.03603">
        <ele>507.978</ele>
        <time>2019-10-29T13:28:54.001Z</time>
      </trkpt>
      <trkpt lat="44.70322" lon="2.03548">
        <ele>515.526</ele>
        <time>2019-10-29T13:29:30.001Z</time>
      </trkpt>
      <trkpt lat="44.70366" lon="2.03503">
        <ele>517.94</ele>
        <time>2019-10-29T13:30:00Z</time>
      </trkpt>
      <trkpt lat="44.70407" lon="2.03455">
        <ele>520.885</ele>
        <time>2019-10-29T13:30:33.001Z</time>
      </trkpt>
      <trkpt lat="44.70456" lon="2.03424">
        <ele>525.877</ele>
        <time>2019-10-29T13:31:09.001Z</time>
      </trkpt>
      <trkpt lat="44.70527" lon="2.03426">
        <ele>532.962</ele>
        <time>2019-10-29T13:31:57.001Z</time>
      </trkpt>
      <trkpt lat="44.70578" lon="2.0338">
        <ele>542.744</ele>
        <time>2019-10-29T13:32:42.001Z</time>
      </trkpt>
      <trkpt lat="44.70613" lon="2.03295">
        <ele>552.126</ele>
        <time>2019-10-29T13:33:30.001Z</time>
      </trkpt>
      <trkpt lat="44.70645" lon="2.03228">
        <ele>554.781</ele>
        <time>2019-10-29T13:34:06.001Z</time>
      </trkpt>
      <trkpt lat="44.70685" lon="2.03153">
        <ele>557.277</ele>
        <time>2019-10-29T13:34:48.001Z</time>
      </trkpt>
      <trkpt lat="44.70716" lon="2.03066">
        <ele>561.229</ele>
        <time>2019-10-29T13:35:18.001Z</time>
      </trkpt>
      <trkpt lat="44.70758" lon="2.02956">
        <ele>564.694</ele>
        <time>2019-10-29T13:35:48.001Z</time>
      </trkpt>
      <trkpt lat="44.70814" lon="2.0281">
        <ele>560.085</ele>
        <time>2019-10-29T13:36:18.001Z</time>
      </trkpt>
      <trkpt lat="44.70974" lon="2.02611">
        <ele>550.731</ele>
        <time>2019-10-29T13:36:48.001Z</time>
      </trkpt>
      <trkpt lat="44.71084" lon="2.0238">
        <ele>545.054</ele>
        <time>2019-10-29T13:37:18.001Z</time>
      </trkpt>
      <trkpt lat="44.71135" lon="2.02281">
        <ele>548.688</ele>
        <time>2019-10-29T13:37:48.001Z</time>
      </trkpt>
      <trkpt lat="44.71234" lon="2.02267">
        <ele>552.836</ele>
        <time>2019-10-29T13:38:18.001Z</time>
      </trkpt>
      <trkpt lat="44.71368" lon="2.02227">
        <ele>550.775</ele>
        <time>2019-10-29T13:38:48.001Z</time>
      </trkpt>
      <trkpt lat="44.71485" lon="2.02148">
        <ele>552.426</ele>
        <time>2019-10-29T13:39:18.001Z</time>
      </trkpt>
      <trkpt lat="44.71617" lon="2.0211">
        <ele>549.193</ele>
        <time>2019-10-29T13:39:48.001Z</time>
      </trkpt>
      <trkpt lat="44.71682" lon="2.02077">
        <ele>554.638</ele>
        <time>2019-10-29T13:40:18.001Z</time>
      </trkpt>
      <trkpt lat="44.71751" lon="2.02082">
        <ele>562.202</ele>
        <time>2019-10-29T13:40:51.001Z</time>
      </trkpt>
      <trkpt lat="44.71811" lon="2.02073">
        <ele>570.088</ele>
        <time>2019-10-29T13:41:24.001Z</time>
      </trkpt>
      <trkpt lat="44.71867" lon="2.02039">
        <ele>577.66</ele>
        <time>2019-10-29T13:41:54.001Z</time>
      </trkpt>
      <trkpt lat="44.71907" lon="2.01984">
        <ele>582.115</ele>
        <time>2019-10-29T13:42:27.001Z</time>
      </trkpt>
      <trkpt lat="44.71942" lon="2.01923">
        <ele>583.155</ele>
        <time>2019-10-29T13:43:00.001Z</time>
      </trkpt>
      <trkpt lat="44.71977" lon="2.01847">
        <ele>592.584</ele>
        <time>2019-10-29T13:43:30.001Z</time>
      </trkpt>
      <trkpt lat="44.71984" lon="2.01764">
        <ele>591.675</ele>
        <time>2019-10-29T13:44:03.001Z</time>
      </trkpt>
      <trkpt lat="44.71971" lon="2.01694">
        <ele>586.36</ele>
        <time>2019-10-29T13:44:36.001Z</time>
      </trkpt>
      <trkpt lat="44.7198" lon="2.0165">
        <ele>590.9</ele>
        <time>2019-10-29T13:45:09.001Z</time>
      </trkpt>
      <trkpt lat="44.7205" lon="2.01678">
        <ele>590.652</ele>
        <time>2019-10-29T13:45:39.001Z</time>
      </trkpt>
      <trkpt lat="44.72245" lon="2.01781">
        <ele>579.103</ele>
        <time>2019-10-29T13:46:09.001Z</time>
      </trkpt>
      <trkpt lat="44.72422" lon="2.01556">
        <ele>575.835</ele>
        <time>2019-10-29T13:46:39.001Z</time>
      </trkpt>
      <trkpt lat="44.72534" lon="2.01481">
        <ele>580.103</ele>
        <time>2019-10-29T13:47:09.001Z</time>
      </trkpt>
      <trkpt lat="44.72622" lon="2.01386">
        <ele>580.378</ele>
        <time>2019-10-29T13:47:39.001Z</time>
      </trkpt>
      <trkpt lat="44.7266" lon="2.01256">
        <ele>578.909</ele>
        <time>2019-10-29T13:48:09.001Z</time>
      </trkpt>
      <trkpt lat="44.7273" lon="2.0117">
        <ele>589.623</ele>
        <time>2019-10-29T13:48:39.001Z</time>
      </trkpt>
      <trkpt lat="44.72805" lon="2.01089">
        <ele>587.308</ele>
        <time>2019-10-29T13:49:09.001Z</time>
      </trkpt>
      <trkpt lat="44.7288" lon="2.01002">
        <ele>585.693</ele>
        <time>2019-10-29T13:49:39.001Z</time>
      </trkpt>
      <trkpt lat="44.72956" lon="2.00931">
        <ele>587.747</ele>
        <time>2019-10-29T13:50:09.001Z</time>
      </trkpt>
      <trkpt lat="44.73046" lon="2.00887">
        <ele>589.175</ele>
        <time>2019-10-29T13:50:39.001Z</time>
      </trkpt>
      <trkpt lat="44.73132" lon="2.00853">
        <ele>593.8</ele>
        <time>2019-10-29T13:51:09.001Z</time>
      </trkpt>
      <trkpt lat="44.732" lon="2.00824">
        <ele>602.142</ele>
        <time>2019-10-29T13:51:39.001Z</time>
      </trkpt>
      <trkpt lat="44.73262" lon="2.0079">
        <ele>602.57</ele>
        <time>2019-10-29T13:52:09.001Z</time>
      </trkpt>
      <trkpt lat="44.73316" lon="2.00749">
        <ele>605.863</ele>
        <time>2019-10-29T13:52:42.001Z</time>
      </trkpt>
      <trkpt lat="44.73345" lon="2.00667">
        <ele>613.912</ele>
        <time>2019-10-29T13:53:18.001Z</time>
      </trkpt>
      <trkpt lat="44.73386" lon="2.00611">
        <ele>626.195</ele>
        <time>2019-10-29T13:53:51.001Z</time>
      </trkpt>
      <trkpt lat="44.73443" lon="2.00565">
        <ele>628.631</ele>
        <time>2019-10-29T13:54:21.001Z</time>
      </trkpt>
      <trkpt lat="44.73463" lon="2.00442">
        <ele>617.481</ele>
        <time>2019-10-29T13:54:51.001Z</time>
      </trkpt>
      <trkpt lat="44.73479" lon="2.00278">
        <ele>611.209</ele>
        <time>2019-10-29T13:55:21.001Z</time>
      </trkpt>
      <trkpt lat="44.73512" lon="2.0012">
        <ele>611.493</ele>
        <time>2019-10-29T13:55:51.001Z</time>
      </trkpt>
      <trkpt lat="44.73551" lon="1.99975">
        <ele>611.985</ele>
        <time>2019-10-29T13:56:21.001Z</time>
      </trkpt>
      <trkpt lat="44.73578" lon="1.99847">
        <ele>615.002</ele>
        <time>2019-10-29T13:56:51.001Z</time>
      </trkpt>
      <trkpt lat="44.73613" lon="1.99702">
        <ele>614.901</ele>
        <time>2019-10-29T13:57:21.001Z</time>
      </trkpt>
      <trkpt lat="44.73642" lon="1.99617">
        <ele>616.937</ele>
        <time>2019-10-29T13:59:18.001Z</time>
      </trkpt>
      <trkpt lat="44.73732" lon="1.99507">
        <ele>617.403</ele>
        <time>2019-10-29T13:59:48.001Z</time>
      </trkpt>
      <trkpt lat="44.73793" lon="1.99372">
        <ele>619.302</ele>
        <time>2019-10-29T14:00:18.001Z</time>
      </trkpt>
      <trkpt lat="44.73764" lon="1.99157">
        <ele>611.41</ele>
        <time>2019-10-29T14:00:48.001Z</time>
      </trkpt>
      <trkpt lat="44.73754" lon="1.98882">
        <ele>606.573</ele>
        <time>2019-10-29T14:01:18.001Z</time>
      </trkpt>
      <trkpt lat="44.73919" lon="1.98605">
        <ele>598.537</ele>
        <time>2019-10-29T14:01:48.001Z</time>
      </trkpt>
      <trkpt lat="44.74018" lon="1.9836">
        <ele>595.913</ele>
        <time>2019-10-29T14:02:18.001Z</time>
      </trkpt>
      <trkpt lat="44.74093" lon="1.98154">
        <ele>599.085</ele>
        <time>2019-10-29T14:02:48.001Z</time>
      </trkpt>
      <trkpt lat="44.74159" lon="1.97872">
        <ele>591.44</ele>
        <time>2019-10-29T14:03:18.001Z</time>
      </trkpt>
      <trkpt lat="44.7419" lon="1.97631">
        <ele>584.285</ele>
        <time>2019-10-29T14:03:48.001Z</time>
      </trkpt>
      <trkpt lat="44.74191" lon="1.97444">
        <ele>585.118</ele>
        <time>2019-10-29T14:04:18.001Z</time>
      </trkpt>
      <trkpt lat="44.74188" lon="1.97203">
        <ele>584.759</ele>
        <time>2019-10-29T14:04:48.001Z</time>
      </trkpt>
      <trkpt lat="44.7419" lon="1.96929">
        <ele>581.766</ele>
        <time>2019-10-29T14:05:18.001Z</time>
      </trkpt>
      <trkpt lat="44.74375" lon="1.96753">
        <ele>578.162</ele>
        <time>2019-10-29T14:05:48.001Z</time>
      </trkpt>
      <trkpt lat="44.74558" lon="1.96604">
        <ele>580.499</ele>
        <time>2019-10-29T14:06:18.001Z</time>
      </trkpt>
      <trkpt lat="44.74779" lon="1.96426">
        <ele>567.247</ele>
        <time>2019-10-29T14:06:51.001Z</time>
      </trkpt>
      <trkpt lat="44.74836" lon="1.96163">
        <ele>568.253</ele>
        <time>2019-10-29T14:07:21.001Z</time>
      </trkpt>
      <trkpt lat="44.74828" lon="1.95822">
        <ele>558.613</ele>
        <time>2019-10-29T14:07:51.001Z</time>
      </trkpt>
      <trkpt lat="44.74934" lon="1.95739">
        <ele>552.913</ele>
        <time>2019-10-29T14:08:21.001Z</time>
      </trkpt>
      <trkpt lat="44.75056" lon="1.95623">
        <ele>551.755</ele>
        <time>2019-10-29T14:08:51.001Z</time>
      </trkpt>
      <trkpt lat="44.75183" lon="1.95489">
        <ele>551.337</ele>
        <time>2019-10-29T14:09:21.001Z</time>
      </trkpt>
      <trkpt lat="44.7531" lon="1.95421">
        <ele>547.931</ele>
        <time>2019-10-29T14:09:51.001Z</time>
      </trkpt>
      <trkpt lat="44.75429" lon="1.95348">
        <ele>546.556</ele>
        <time>2019-10-29T14:10:21.001Z</time>
      </trkpt>
      <trkpt lat="44.75526" lon="1.95333">
        <ele>552.432</ele>
        <time>2019-10-29T14:10:51.001Z</time>
      </trkpt>
      <trkpt lat="44.75607" lon="1.95312">
        <ele>556.761</ele>
        <time>2019-10-29T14:11:21.001Z</time>
      </trkpt>
      <trkpt lat="44.75683" lon="1.95268">
        <ele>558.544</ele>
        <time>2019-10-29T14:11:51.001Z</time>
      </trkpt>
      <trkpt lat="44.75744" lon="1.95231">
        <ele>556.258</ele>
        <time>2019-10-29T14:12:21.001Z</time>
      </trkpt>
      <trkpt lat="44.75855" lon="1.9515">
        <ele>563.13</ele>
        <time>2019-10-29T14:12:51.001Z</time>
      </trkpt>
      <trkpt lat="44.75958" lon="1.95059">
        <ele>561.657</ele>
        <time>2019-10-29T14:13:21.001Z</time>
      </trkpt>
      <trkpt lat="44.7601" lon="1.95005">
        <ele>561.651</ele>
        <time>2019-10-29T14:13:51.001Z</time>
      </trkpt>
      <trkpt lat="44.76057" lon="1.94949">
        <ele>572.335</ele>
        <time>2019-10-29T14:14:33.001Z</time>
      </trkpt>
      <trkpt lat="44.7611" lon="1.94913">
        <ele>577.156</ele>
        <time>2019-10-29T14:15:09.001Z</time>
      </trkpt>
      <trkpt lat="44.76191" lon="1.94902">
        <ele>578.916</ele>
        <time>2019-10-29T14:15:39.001Z</time>
      </trkpt>
      <trkpt lat="44.76295" lon="1.9488">
        <ele>577.068</ele>
        <time>2019-10-29T14:16:09.001Z</time>
      </trkpt>
      <trkpt lat="44.76412" lon="1.9482">
        <ele>573.838</ele>
        <time>2019-10-29T14:16:39.001Z</time>
      </trkpt>
      <trkpt lat="44.76521" lon="1.94785">
        <ele>575.92</ele>
        <time>2019-10-29T14:17:09.001Z</time>
      </trkpt>
      <trkpt lat="44.76602" lon="1.94705">
        <ele>578.902</ele>
        <time>2019-10-29T14:17:39.001Z</time>
      </trkpt>
      <trkpt lat="44.76667" lon="1.94625">
        <ele>581.333</ele>
        <time>2019-10-29T14:18:09.001Z</time>
      </trkpt>
      <trkpt lat="44.76758" lon="1.94559">
        <ele>579.586</ele>
        <time>2019-10-29T14:18:42.001Z</time>
      </trkpt>
      <trkpt lat="44.76818" lon="1.94489">
        <ele>582.447</ele>
        <time>2019-10-29T14:19:15.001Z</time>
      </trkpt>
      <trkpt lat="44.76854" lon="1.94439">
        <ele>589.841</ele>
        <time>2019-10-29T14:19:45.001Z</time>
      </trkpt>
      <trkpt lat="44.76884" lon="1.94378">
        <ele>598.218</ele>
        <time>2019-10-29T14:20:18.001Z</time>
      </trkpt>
      <trkpt lat="44.76912" lon="1.94305">
        <ele>603.964</ele>
        <time>2019-10-29T14:20:48.001Z</time>
      </trkpt>
      <trkpt lat="44.76943" lon="1.94229">
        <ele>604.721</ele>
        <time>2019-10-29T14:21:18.001Z</time>
      </trkpt>
      <trkpt lat="44.76996" lon="1.94143">
        <ele>607.832</ele>
        <time>2019-10-29T14:21:48.001Z</time>
      </trkpt>
      <trkpt lat="44.77048" lon="1.94056">
        <ele>607.463</ele>
        <time>2019-10-29T14:22:18.001Z</time>
      </trkpt>
      <trkpt lat="44.77091" lon="1.93971">
        <ele>613.338</ele>
        <time>2019-10-29T14:22:48.001Z</time>
      </trkpt>
      <trkpt lat="44.77121" lon="1.93872">
        <ele>615.687</ele>
        <time>2019-10-29T14:23:18.001Z</time>
      </trkpt>
      <trkpt lat="44.77156" lon="1.93774">
        <ele>614.587</ele>
        <time>2019-10-29T14:23:48.001Z</time>
      </trkpt>
      <trkpt lat="44.77186" lon="1.93692">
        <ele>613.233</ele>
        <time>2019-10-29T14:24:18.001Z</time>
      </trkpt>
      <trkpt lat="44.77229" lon="1.93625">
        <ele>620.657</ele>
        <time>2019-10-29T14:24:48.001Z</time>
      </trkpt>
      <trkpt lat="44.77268" lon="1.93566">
        <ele>625.04</ele>
        <time>2019-10-29T14:25:18.001Z</time>
      </trkpt>
      <trkpt lat="44.77305" lon="1.93496">
        <ele>624.66</ele>
        <time>2019-10-29T14:25:48.001Z</time>
      </trkpt>
      <trkpt lat="44.77378" lon="1.93362">
        <ele>625.952</ele>
        <time>2019-10-29T14:26:18.001Z</time>
      </trkpt>
      <trkpt lat="44.77394" lon="1.93112">
        <ele>615.897</ele>
        <time>2019-10-29T14:26:48.001Z</time>
      </trkpt>
      <trkpt lat="44.77388" lon="1.9282">
        <ele>610.51</ele>
        <time>2019-10-29T14:27:18.001Z</time>
      </trkpt>
      <trkpt lat="44.77409" lon="1.92638">
        <ele>605.017</ele>
        <time>2019-10-29T14:27:48.001Z</time>
      </trkpt>
      <trkpt lat="44.77539" lon="1.92413">
        <ele>603.29</ele>
        <time>2019-10-29T14:28:18.001Z</time>
      </trkpt>
      <trkpt lat="44.77548" lon="1.91941">
        <ele>589.374</ele>
        <time>2019-10-29T14:28:48.001Z</time>
      </trkpt>
      <trkpt lat="44.7758" lon="1.9146">
        <ele>573.422</ele>
        <time>2019-10-29T14:29:18.001Z</time>
      </trkpt>
      <trkpt lat="44.77657" lon="1.91109">
        <ele>550.835</ele>
        <time>2019-10-29T14:29:48.001Z</time>
      </trkpt>
      <trkpt lat="44.77676" lon="1.90718">
        <ele>520.415</ele>
        <time>2019-10-29T14:30:21.001Z</time>
      </trkpt>
      <trkpt lat="44.77635" lon="1.90414">
        <ele>495.056</ele>
        <time>2019-10-29T14:30:51.001Z</time>
      </trkpt>
      <trkpt lat="44.77737" lon="1.9003">
        <ele>486.044</ele>
        <time>2019-10-29T14:31:21.001Z</time>
      </trkpt>
      <trkpt lat="44.78046" lon="1.89846">
        <ele>463.138</ele>
        <time>2019-10-29T14:31:51.001Z</time>
      </trkpt>
      <trkpt lat="44.78312" lon="1.90006">
        <ele>453.216</ele>
        <time>2019-10-29T14:32:21.001Z</time>
      </trkpt>
      <trkpt lat="44.78371" lon="1.90076">
        <ele>460.439</ele>
        <time>2019-10-29T14:32:51.001Z</time>
      </trkpt>
      <trkpt lat="44.78426" lon="1.90108">
        <ele>465.19</ele>
        <time>2019-10-29T14:33:21.001Z</time>
      </trkpt>
      <trkpt lat="44.78482" lon="1.90078">
        <ele>475.753</ele>
        <time>2019-10-29T14:33:51.001Z</time>
      </trkpt>
      <trkpt lat="44.78512" lon="1.90053">
        <ele>477.187</ele>
        <time>2019-10-29T14:39:33.001Z</time>
      </trkpt>
      <trkpt lat="44.78453" lon="1.90017">
        <ele>476.041</ele>
        <time>2019-10-29T14:40:06.001Z</time>
      </trkpt>
      <trkpt lat="44.78447" lon="1.89806">
        <ele>464.121</ele>
        <time>2019-10-29T14:40:36.001Z</time>
      </trkpt>
      <trkpt lat="44.78497" lon="1.898">
        <ele>462.735</ele>
        <time>2019-10-29T14:41:33.001Z</time>
      </trkpt>
    </trkseg>
  </trk>
</gpx>